<?xml version="1.0" encoding="UTF-8" standalone="no" ?>
<gpx xmlns="http://www.topografix.com/GPX/1/1" xmlns:xsi="http://www.w3.org/2001/XMLSchema-instance" xsi:schemaLocation="http://www.topografix.com/GPX/1/1 http://www.topografix.com/GPX/1/1/gpx.xsd" version="1.1" creator="VisuGPX - https://www.visugpx.com">
  <metadata>
    <name>Autour de Mortzwiller</name>
    <desc><![CDATA[Marche autour de Mortzwiller]]></desc>
  </metadata>
  <trk>
    <name><![CDATA[Autour de Mortzwiller_1]]></name>
    <trkseg>
      <trkpt lat="47.73125" lon="7.0521">
        <ele>380.9</ele>
        <time>2015-06-07T07:46:09Z</time>
      </trkpt>
      <trkpt lat="47.73125" lon="7.0521">
        <ele>357.2</ele>
        <time>2015-06-07T07:46:11Z</time>
      </trkpt>
      <trkpt lat="47.7313" lon="7.05207">
        <ele>378</ele>
        <time>2015-06-07T07:46:16Z</time>
      </trkpt>
      <trkpt lat="47.73135" lon="7.05203">
        <ele>379</ele>
        <time>2015-06-07T07:46:25Z</time>
      </trkpt>
      <trkpt lat="47.73137" lon="7.05198">
        <ele>379.9</ele>
        <time>2015-06-07T07:46:31Z</time>
      </trkpt>
      <trkpt lat="47.73141" lon="7.05178">
        <ele>380</ele>
        <time>2015-06-07T07:46:38Z</time>
      </trkpt>
      <trkpt lat="47.73146" lon="7.05166">
        <ele>381</ele>
        <time>2015-06-07T07:46:54Z</time>
      </trkpt>
      <trkpt lat="47.73146" lon="7.05157">
        <ele>381</ele>
        <time>2015-06-07T07:46:58Z</time>
      </trkpt>
      <trkpt lat="47.73145" lon="7.0515">
        <ele>381</ele>
        <time>2015-06-07T07:47:02Z</time>
      </trkpt>
      <trkpt lat="47.73145" lon="7.05143">
        <ele>381.9</ele>
        <time>2015-06-07T07:47:15Z</time>
      </trkpt>
      <trkpt lat="47.73142" lon="7.05136">
        <ele>383.5</ele>
        <time>2015-06-07T07:47:20Z</time>
      </trkpt>
      <trkpt lat="47.73139" lon="7.0513">
        <ele>387.7</ele>
        <time>2015-06-07T07:47:25Z</time>
      </trkpt>
      <trkpt lat="47.73136" lon="7.05125">
        <ele>388</ele>
        <time>2015-06-07T07:47:31Z</time>
      </trkpt>
      <trkpt lat="47.73132" lon="7.05115">
        <ele>388.7</ele>
        <time>2015-06-07T07:47:37Z</time>
      </trkpt>
      <trkpt lat="47.73129" lon="7.05108">
        <ele>391</ele>
        <time>2015-06-07T07:47:48Z</time>
      </trkpt>
      <trkpt lat="47.73126" lon="7.05103">
        <ele>391</ele>
        <time>2015-06-07T07:47:52Z</time>
      </trkpt>
      <trkpt lat="47.7312" lon="7.05085">
        <ele>393.9</ele>
        <time>2015-06-07T07:48:01Z</time>
      </trkpt>
      <trkpt lat="47.73116" lon="7.05072">
        <ele>395.9</ele>
        <time>2015-06-07T07:48:08Z</time>
      </trkpt>
      <trkpt lat="47.73112" lon="7.0506">
        <ele>396</ele>
        <time>2015-06-07T07:48:14Z</time>
      </trkpt>
      <trkpt lat="47.73113" lon="7.05052">
        <ele>397</ele>
        <time>2015-06-07T07:48:24Z</time>
      </trkpt>
      <trkpt lat="47.73111" lon="7.05046">
        <ele>397</ele>
        <time>2015-06-07T07:48:29Z</time>
      </trkpt>
      <trkpt lat="47.73102" lon="7.05039">
        <ele>397</ele>
        <time>2015-06-07T07:48:39Z</time>
      </trkpt>
      <trkpt lat="47.73096" lon="7.05027">
        <ele>397</ele>
        <time>2015-06-07T07:48:46Z</time>
      </trkpt>
      <trkpt lat="47.73092" lon="7.05023">
        <ele>397</ele>
        <time>2015-06-07T07:48:52Z</time>
      </trkpt>
      <trkpt lat="47.73087" lon="7.05022">
        <ele>396.2</ele>
        <time>2015-06-07T07:48:58Z</time>
      </trkpt>
      <trkpt lat="47.73084" lon="7.05016">
        <ele>396.1</ele>
        <time>2015-06-07T07:49:03Z</time>
      </trkpt>
      <trkpt lat="47.73078" lon="7.04995">
        <ele>395</ele>
        <time>2015-06-07T07:49:10Z</time>
      </trkpt>
      <trkpt lat="47.73077" lon="7.04985">
        <ele>395</ele>
        <time>2015-06-07T07:49:12Z</time>
      </trkpt>
      <trkpt lat="47.73079" lon="7.04978">
        <ele>395</ele>
        <time>2015-06-07T07:49:14Z</time>
      </trkpt>
      <trkpt lat="47.73087" lon="7.04972">
        <ele>394.1</ele>
        <time>2015-06-07T07:49:20Z</time>
      </trkpt>
      <trkpt lat="47.73091" lon="7.04965">
        <ele>394</ele>
        <time>2015-06-07T07:49:23Z</time>
      </trkpt>
      <trkpt lat="47.73093" lon="7.04957">
        <ele>394</ele>
        <time>2015-06-07T07:49:29Z</time>
      </trkpt>
      <trkpt lat="47.73093" lon="7.0495">
        <ele>394</ele>
        <time>2015-06-07T07:49:37Z</time>
      </trkpt>
      <trkpt lat="47.73092" lon="7.04941">
        <ele>394</ele>
        <time>2015-06-07T07:49:43Z</time>
      </trkpt>
      <trkpt lat="47.73089" lon="7.04936">
        <ele>394</ele>
        <time>2015-06-07T07:49:47Z</time>
      </trkpt>
      <trkpt lat="47.73087" lon="7.04928">
        <ele>393</ele>
        <time>2015-06-07T07:49:52Z</time>
      </trkpt>
      <trkpt lat="47.73088" lon="7.04921">
        <ele>393</ele>
        <time>2015-06-07T07:49:56Z</time>
      </trkpt>
      <trkpt lat="47.73095" lon="7.04903">
        <ele>393</ele>
        <time>2015-06-07T07:50:10Z</time>
      </trkpt>
      <trkpt lat="47.73097" lon="7.04897">
        <ele>393</ele>
        <time>2015-06-07T07:50:14Z</time>
      </trkpt>
      <trkpt lat="47.73099" lon="7.04891">
        <ele>393</ele>
        <time>2015-06-07T07:50:17Z</time>
      </trkpt>
      <trkpt lat="47.73103" lon="7.04884">
        <ele>393</ele>
        <time>2015-06-07T07:50:22Z</time>
      </trkpt>
      <trkpt lat="47.73105" lon="7.04877">
        <ele>394.8</ele>
        <time>2015-06-07T07:50:26Z</time>
      </trkpt>
      <trkpt lat="47.73107" lon="7.0487">
        <ele>395</ele>
        <time>2015-06-07T07:50:29Z</time>
      </trkpt>
      <trkpt lat="47.73107" lon="7.04855">
        <ele>395</ele>
        <time>2015-06-07T07:50:36Z</time>
      </trkpt>
      <trkpt lat="47.73108" lon="7.04849">
        <ele>395.9</ele>
        <time>2015-06-07T07:50:40Z</time>
      </trkpt>
      <trkpt lat="47.73111" lon="7.04843">
        <ele>396</ele>
        <time>2015-06-07T07:50:44Z</time>
      </trkpt>
      <trkpt lat="47.73113" lon="7.04837">
        <ele>396</ele>
        <time>2015-06-07T07:50:47Z</time>
      </trkpt>
      <trkpt lat="47.73115" lon="7.04831">
        <ele>396</ele>
        <time>2015-06-07T07:50:51Z</time>
      </trkpt>
      <trkpt lat="47.73116" lon="7.04824">
        <ele>397</ele>
        <time>2015-06-07T07:50:57Z</time>
      </trkpt>
      <trkpt lat="47.73119" lon="7.04809">
        <ele>398.4</ele>
        <time>2015-06-07T07:51:05Z</time>
      </trkpt>
      <trkpt lat="47.73119" lon="7.04801">
        <ele>399.5</ele>
        <time>2015-06-07T07:51:09Z</time>
      </trkpt>
      <trkpt lat="47.7312" lon="7.04786">
        <ele>400.9</ele>
        <time>2015-06-07T07:51:17Z</time>
      </trkpt>
      <trkpt lat="47.7312" lon="7.04778">
        <ele>401.9</ele>
        <time>2015-06-07T07:51:23Z</time>
      </trkpt>
      <trkpt lat="47.7312" lon="7.0477">
        <ele>403.5</ele>
        <time>2015-06-07T07:51:30Z</time>
      </trkpt>
      <trkpt lat="47.73113" lon="7.04753">
        <ele>404</ele>
        <time>2015-06-07T07:51:38Z</time>
      </trkpt>
      <trkpt lat="47.73115" lon="7.04746">
        <ele>405</ele>
        <time>2015-06-07T07:51:45Z</time>
      </trkpt>
      <trkpt lat="47.73118" lon="7.04731">
        <ele>406.5</ele>
        <time>2015-06-07T07:51:56Z</time>
      </trkpt>
      <trkpt lat="47.73117" lon="7.04722">
        <ele>407</ele>
        <time>2015-06-07T07:51:58Z</time>
      </trkpt>
      <trkpt lat="47.73116" lon="7.04715">
        <ele>407</ele>
        <time>2015-06-07T07:52:02Z</time>
      </trkpt>
      <trkpt lat="47.73114" lon="7.04708">
        <ele>407</ele>
        <time>2015-06-07T07:52:05Z</time>
      </trkpt>
      <trkpt lat="47.73118" lon="7.04702">
        <ele>407.9</ele>
        <time>2015-06-07T07:52:11Z</time>
      </trkpt>
      <trkpt lat="47.73121" lon="7.04689">
        <ele>409.7</ele>
        <time>2015-06-07T07:52:17Z</time>
      </trkpt>
      <trkpt lat="47.73117" lon="7.04685">
        <ele>410.5</ele>
        <time>2015-06-07T07:52:23Z</time>
      </trkpt>
      <trkpt lat="47.73114" lon="7.04678">
        <ele>411</ele>
        <time>2015-06-07T07:52:28Z</time>
      </trkpt>
      <trkpt lat="47.73114" lon="7.04671">
        <ele>411</ele>
        <time>2015-06-07T07:52:32Z</time>
      </trkpt>
      <trkpt lat="47.73116" lon="7.04664">
        <ele>411.5</ele>
        <time>2015-06-07T07:52:37Z</time>
      </trkpt>
      <trkpt lat="47.7312" lon="7.0465">
        <ele>415.5</ele>
        <time>2015-06-07T07:52:49Z</time>
      </trkpt>
      <trkpt lat="47.73127" lon="7.04641">
        <ele>415.9</ele>
        <time>2015-06-07T07:52:54Z</time>
      </trkpt>
      <trkpt lat="47.73131" lon="7.04637">
        <ele>416.5</ele>
        <time>2015-06-07T07:53:00Z</time>
      </trkpt>
      <trkpt lat="47.73135" lon="7.04625">
        <ele>417</ele>
        <time>2015-06-07T07:53:07Z</time>
      </trkpt>
      <trkpt lat="47.7314" lon="7.04613">
        <ele>417</ele>
        <time>2015-06-07T07:53:17Z</time>
      </trkpt>
      <trkpt lat="47.73144" lon="7.04607">
        <ele>418</ele>
        <time>2015-06-07T07:53:20Z</time>
      </trkpt>
      <trkpt lat="47.73152" lon="7.04599">
        <ele>418</ele>
        <time>2015-06-07T07:53:26Z</time>
      </trkpt>
      <trkpt lat="47.73154" lon="7.04585">
        <ele>420.9</ele>
        <time>2015-06-07T07:53:34Z</time>
      </trkpt>
      <trkpt lat="47.73154" lon="7.04571">
        <ele>421</ele>
        <time>2015-06-07T07:53:46Z</time>
      </trkpt>
      <trkpt lat="47.73155" lon="7.04552">
        <ele>422.5</ele>
        <time>2015-06-07T07:53:55Z</time>
      </trkpt>
      <trkpt lat="47.73158" lon="7.04543">
        <ele>424.2</ele>
        <time>2015-06-07T07:54:00Z</time>
      </trkpt>
      <trkpt lat="47.73159" lon="7.04535">
        <ele>425</ele>
        <time>2015-06-07T07:54:04Z</time>
      </trkpt>
      <trkpt lat="47.73159" lon="7.04527">
        <ele>426.9</ele>
        <time>2015-06-07T07:54:09Z</time>
      </trkpt>
      <trkpt lat="47.73162" lon="7.04522">
        <ele>427.7</ele>
        <time>2015-06-07T07:54:15Z</time>
      </trkpt>
      <trkpt lat="47.73165" lon="7.04516">
        <ele>428.7</ele>
        <time>2015-06-07T07:54:20Z</time>
      </trkpt>
      <trkpt lat="47.73164" lon="7.04508">
        <ele>431.4</ele>
        <time>2015-06-07T07:54:31Z</time>
      </trkpt>
      <trkpt lat="47.73164" lon="7.04492">
        <ele>433.9</ele>
        <time>2015-06-07T07:54:37Z</time>
      </trkpt>
      <trkpt lat="47.73166" lon="7.04485">
        <ele>434</ele>
        <time>2015-06-07T07:54:41Z</time>
      </trkpt>
      <trkpt lat="47.7317" lon="7.04479">
        <ele>434</ele>
        <time>2015-06-07T07:54:44Z</time>
      </trkpt>
      <trkpt lat="47.73172" lon="7.04473">
        <ele>434</ele>
        <time>2015-06-07T07:54:47Z</time>
      </trkpt>
      <trkpt lat="47.73175" lon="7.04467">
        <ele>434</ele>
        <time>2015-06-07T07:54:52Z</time>
      </trkpt>
      <trkpt lat="47.73176" lon="7.0446">
        <ele>434</ele>
        <time>2015-06-07T07:54:58Z</time>
      </trkpt>
      <trkpt lat="47.73177" lon="7.04453">
        <ele>434</ele>
        <time>2015-06-07T07:55:06Z</time>
      </trkpt>
      <trkpt lat="47.73179" lon="7.04445">
        <ele>434</ele>
        <time>2015-06-07T07:55:15Z</time>
      </trkpt>
      <trkpt lat="47.73174" lon="7.04431">
        <ele>433.5</ele>
        <time>2015-06-07T07:55:23Z</time>
      </trkpt>
      <trkpt lat="47.73176" lon="7.04416">
        <ele>431.6</ele>
        <time>2015-06-07T07:55:28Z</time>
      </trkpt>
      <trkpt lat="47.73178" lon="7.0441">
        <ele>429.6</ele>
        <time>2015-06-07T07:55:31Z</time>
      </trkpt>
      <trkpt lat="47.7318" lon="7.04403">
        <ele>429.6</ele>
        <time>2015-06-07T07:55:34Z</time>
      </trkpt>
      <trkpt lat="47.73181" lon="7.04395">
        <ele>426.8</ele>
        <time>2015-06-07T07:55:38Z</time>
      </trkpt>
      <trkpt lat="47.73183" lon="7.04388">
        <ele>422.5</ele>
        <time>2015-06-07T07:55:44Z</time>
      </trkpt>
      <trkpt lat="47.73182" lon="7.04382">
        <ele>420.3</ele>
        <time>2015-06-07T07:55:47Z</time>
      </trkpt>
      <trkpt lat="47.73181" lon="7.04374">
        <ele>419.2</ele>
        <time>2015-06-07T07:55:54Z</time>
      </trkpt>
      <trkpt lat="47.7318" lon="7.04367">
        <ele>419</ele>
        <time>2015-06-07T07:56:00Z</time>
      </trkpt>
      <trkpt lat="47.73177" lon="7.04362">
        <ele>419</ele>
        <time>2015-06-07T07:56:04Z</time>
      </trkpt>
      <trkpt lat="47.73179" lon="7.04355">
        <ele>419</ele>
        <time>2015-06-07T07:56:07Z</time>
      </trkpt>
      <trkpt lat="47.7318" lon="7.04344">
        <ele>419</ele>
        <time>2015-06-07T07:56:13Z</time>
      </trkpt>
      <trkpt lat="47.7318" lon="7.04337">
        <ele>419</ele>
        <time>2015-06-07T07:56:19Z</time>
      </trkpt>
      <trkpt lat="47.7318" lon="7.04329">
        <ele>419.9</ele>
        <time>2015-06-07T07:56:23Z</time>
      </trkpt>
      <trkpt lat="47.73181" lon="7.04322">
        <ele>420</ele>
        <time>2015-06-07T07:56:28Z</time>
      </trkpt>
      <trkpt lat="47.73179" lon="7.04308">
        <ele>420</ele>
        <time>2015-06-07T07:56:37Z</time>
      </trkpt>
      <trkpt lat="47.73176" lon="7.043">
        <ele>420.8</ele>
        <time>2015-06-07T07:56:43Z</time>
      </trkpt>
      <trkpt lat="47.73178" lon="7.04293">
        <ele>421</ele>
        <time>2015-06-07T07:56:48Z</time>
      </trkpt>
      <trkpt lat="47.73178" lon="7.04285">
        <ele>421</ele>
        <time>2015-06-07T07:56:52Z</time>
      </trkpt>
      <trkpt lat="47.73178" lon="7.04278">
        <ele>421</ele>
        <time>2015-06-07T07:56:56Z</time>
      </trkpt>
      <trkpt lat="47.73179" lon="7.04271">
        <ele>421</ele>
        <time>2015-06-07T07:57:00Z</time>
      </trkpt>
      <trkpt lat="47.73182" lon="7.04251">
        <ele>422</ele>
        <time>2015-06-07T07:57:09Z</time>
      </trkpt>
      <trkpt lat="47.73182" lon="7.04244">
        <ele>421.1</ele>
        <time>2015-06-07T07:57:13Z</time>
      </trkpt>
      <trkpt lat="47.73177" lon="7.04241">
        <ele>421</ele>
        <time>2015-06-07T07:57:17Z</time>
      </trkpt>
      <trkpt lat="47.73168" lon="7.04236">
        <ele>421</ele>
        <time>2015-06-07T07:57:21Z</time>
      </trkpt>
      <trkpt lat="47.73166" lon="7.0423">
        <ele>421</ele>
        <time>2015-06-07T07:57:26Z</time>
      </trkpt>
      <trkpt lat="47.73163" lon="7.04217">
        <ele>422</ele>
        <time>2015-06-07T07:57:36Z</time>
      </trkpt>
      <trkpt lat="47.7316" lon="7.04211">
        <ele>422</ele>
        <time>2015-06-07T07:57:40Z</time>
      </trkpt>
      <trkpt lat="47.73155" lon="7.04199">
        <ele>422</ele>
        <time>2015-06-07T07:57:48Z</time>
      </trkpt>
      <trkpt lat="47.73152" lon="7.04194">
        <ele>422</ele>
        <time>2015-06-07T07:57:53Z</time>
      </trkpt>
      <trkpt lat="47.73152" lon="7.04183">
        <ele>422</ele>
        <time>2015-06-07T07:58:00Z</time>
      </trkpt>
      <trkpt lat="47.7315" lon="7.04176">
        <ele>422</ele>
        <time>2015-06-07T07:58:05Z</time>
      </trkpt>
      <trkpt lat="47.73146" lon="7.04171">
        <ele>422.9</ele>
        <time>2015-06-07T07:58:10Z</time>
      </trkpt>
      <trkpt lat="47.73137" lon="7.04156">
        <ele>423.5</ele>
        <time>2015-06-07T07:58:20Z</time>
      </trkpt>
      <trkpt lat="47.73132" lon="7.04144">
        <ele>424</ele>
        <time>2015-06-07T07:58:30Z</time>
      </trkpt>
      <trkpt lat="47.7313" lon="7.04137">
        <ele>424</ele>
        <time>2015-06-07T07:58:35Z</time>
      </trkpt>
      <trkpt lat="47.73129" lon="7.04131">
        <ele>424</ele>
        <time>2015-06-07T07:58:40Z</time>
      </trkpt>
      <trkpt lat="47.73129" lon="7.04117">
        <ele>424</ele>
        <time>2015-06-07T07:58:45Z</time>
      </trkpt>
      <trkpt lat="47.73129" lon="7.0411">
        <ele>424.9</ele>
        <time>2015-06-07T07:58:49Z</time>
      </trkpt>
      <trkpt lat="47.73126" lon="7.04104">
        <ele>425</ele>
        <time>2015-06-07T07:58:54Z</time>
      </trkpt>
      <trkpt lat="47.7312" lon="7.04092">
        <ele>426.7</ele>
        <time>2015-06-07T07:59:03Z</time>
      </trkpt>
      <trkpt lat="47.73115" lon="7.04095">
        <ele>427</ele>
        <time>2015-06-07T07:59:11Z</time>
      </trkpt>
      <trkpt lat="47.73117" lon="7.04104">
        <ele>427</ele>
        <time>2015-06-07T07:59:16Z</time>
      </trkpt>
      <trkpt lat="47.73114" lon="7.04084">
        <ele>426.5</ele>
        <time>2015-06-07T07:59:33Z</time>
      </trkpt>
      <trkpt lat="47.73113" lon="7.0407">
        <ele>426</ele>
        <time>2015-06-07T07:59:38Z</time>
      </trkpt>
      <trkpt lat="47.73113" lon="7.0405">
        <ele>423</ele>
        <time>2015-06-07T07:59:48Z</time>
      </trkpt>
      <trkpt lat="47.73112" lon="7.04042">
        <ele>422.5</ele>
        <time>2015-06-07T07:59:52Z</time>
      </trkpt>
      <trkpt lat="47.73106" lon="7.04031">
        <ele>422</ele>
        <time>2015-06-07T08:00:01Z</time>
      </trkpt>
      <trkpt lat="47.73103" lon="7.04016">
        <ele>421.1</ele>
        <time>2015-06-07T08:00:05Z</time>
      </trkpt>
      <trkpt lat="47.73098" lon="7.04005">
        <ele>421</ele>
        <time>2015-06-07T08:00:12Z</time>
      </trkpt>
      <trkpt lat="47.73098" lon="7.03997">
        <ele>421</ele>
        <time>2015-06-07T08:00:18Z</time>
      </trkpt>
      <trkpt lat="47.73095" lon="7.0399">
        <ele>421</ele>
        <time>2015-06-07T08:00:22Z</time>
      </trkpt>
      <trkpt lat="47.73091" lon="7.03985">
        <ele>421</ele>
        <time>2015-06-07T08:00:26Z</time>
      </trkpt>
      <trkpt lat="47.73089" lon="7.03978">
        <ele>421</ele>
        <time>2015-06-07T08:00:31Z</time>
      </trkpt>
      <trkpt lat="47.73086" lon="7.03972">
        <ele>421.9</ele>
        <time>2015-06-07T08:00:34Z</time>
      </trkpt>
      <trkpt lat="47.73082" lon="7.03968">
        <ele>421.9</ele>
        <time>2015-06-07T08:00:37Z</time>
      </trkpt>
      <trkpt lat="47.73079" lon="7.03961">
        <ele>422</ele>
        <time>2015-06-07T08:00:41Z</time>
      </trkpt>
      <trkpt lat="47.73076" lon="7.03949">
        <ele>422</ele>
        <time>2015-06-07T08:00:46Z</time>
      </trkpt>
      <trkpt lat="47.73073" lon="7.03943">
        <ele>421</ele>
        <time>2015-06-07T08:01:04Z</time>
      </trkpt>
      <trkpt lat="47.73067" lon="7.03931">
        <ele>420.1</ele>
        <time>2015-06-07T08:01:12Z</time>
      </trkpt>
      <trkpt lat="47.73059" lon="7.03922">
        <ele>419</ele>
        <time>2015-06-07T08:01:21Z</time>
      </trkpt>
      <trkpt lat="47.73047" lon="7.03913">
        <ele>416.1</ele>
        <time>2015-06-07T08:01:28Z</time>
      </trkpt>
      <trkpt lat="47.7304" lon="7.03904">
        <ele>416</ele>
        <time>2015-06-07T08:01:40Z</time>
      </trkpt>
      <trkpt lat="47.73039" lon="7.0389">
        <ele>416</ele>
        <time>2015-06-07T08:01:50Z</time>
      </trkpt>
      <trkpt lat="47.73037" lon="7.03884">
        <ele>416</ele>
        <time>2015-06-07T08:01:53Z</time>
      </trkpt>
      <trkpt lat="47.73036" lon="7.03869">
        <ele>417</ele>
        <time>2015-06-07T08:02:02Z</time>
      </trkpt>
      <trkpt lat="47.73034" lon="7.03862">
        <ele>417</ele>
        <time>2015-06-07T08:02:08Z</time>
      </trkpt>
      <trkpt lat="47.7303" lon="7.03857">
        <ele>417</ele>
        <time>2015-06-07T08:02:13Z</time>
      </trkpt>
      <trkpt lat="47.7302" lon="7.03844">
        <ele>418</ele>
        <time>2015-06-07T08:02:27Z</time>
      </trkpt>
      <trkpt lat="47.73016" lon="7.03839">
        <ele>418</ele>
        <time>2015-06-07T08:02:31Z</time>
      </trkpt>
      <trkpt lat="47.73013" lon="7.03833">
        <ele>419</ele>
        <time>2015-06-07T08:02:36Z</time>
      </trkpt>
      <trkpt lat="47.73009" lon="7.03828">
        <ele>419</ele>
        <time>2015-06-07T08:02:39Z</time>
      </trkpt>
      <trkpt lat="47.73004" lon="7.03824">
        <ele>419</ele>
        <time>2015-06-07T08:02:43Z</time>
      </trkpt>
      <trkpt lat="47.72999" lon="7.03822">
        <ele>419</ele>
        <time>2015-06-07T08:02:48Z</time>
      </trkpt>
      <trkpt lat="47.72993" lon="7.03813">
        <ele>421.9</ele>
        <time>2015-06-07T08:03:10Z</time>
      </trkpt>
      <trkpt lat="47.72988" lon="7.03815">
        <ele>422.5</ele>
        <time>2015-06-07T08:03:14Z</time>
      </trkpt>
      <trkpt lat="47.72983" lon="7.03817">
        <ele>423</ele>
        <time>2015-06-07T08:03:18Z</time>
      </trkpt>
      <trkpt lat="47.72969" lon="7.03813">
        <ele>424</ele>
        <time>2015-06-07T08:03:27Z</time>
      </trkpt>
      <trkpt lat="47.72967" lon="7.03806">
        <ele>424</ele>
        <time>2015-06-07T08:03:36Z</time>
      </trkpt>
      <trkpt lat="47.72963" lon="7.03802">
        <ele>424</ele>
        <time>2015-06-07T08:03:48Z</time>
      </trkpt>
      <trkpt lat="47.72961" lon="7.03795">
        <ele>424</ele>
        <time>2015-06-07T08:03:54Z</time>
      </trkpt>
      <trkpt lat="47.72957" lon="7.03791">
        <ele>424</ele>
        <time>2015-06-07T08:04:02Z</time>
      </trkpt>
      <trkpt lat="47.72948" lon="7.03782">
        <ele>423</ele>
        <time>2015-06-07T08:04:10Z</time>
      </trkpt>
      <trkpt lat="47.72943" lon="7.0378">
        <ele>419.4</ele>
        <time>2015-06-07T08:04:13Z</time>
      </trkpt>
      <trkpt lat="47.72937" lon="7.03784">
        <ele>419</ele>
        <time>2015-06-07T08:04:17Z</time>
      </trkpt>
      <trkpt lat="47.72934" lon="7.03788">
        <ele>419</ele>
        <time>2015-06-07T08:04:21Z</time>
      </trkpt>
      <trkpt lat="47.72931" lon="7.03781">
        <ele>419</ele>
        <time>2015-06-07T08:04:27Z</time>
      </trkpt>
      <trkpt lat="47.7293" lon="7.03774">
        <ele>419</ele>
        <time>2015-06-07T08:04:30Z</time>
      </trkpt>
      <trkpt lat="47.72933" lon="7.03764">
        <ele>419</ele>
        <time>2015-06-07T08:04:40Z</time>
      </trkpt>
      <trkpt lat="47.72934" lon="7.03757">
        <ele>419.8</ele>
        <time>2015-06-07T08:04:56Z</time>
      </trkpt>
      <trkpt lat="47.72938" lon="7.03752">
        <ele>420</ele>
        <time>2015-06-07T08:04:58Z</time>
      </trkpt>
      <trkpt lat="47.72941" lon="7.03746">
        <ele>420</ele>
        <time>2015-06-07T08:05:03Z</time>
      </trkpt>
      <trkpt lat="47.72943" lon="7.0374">
        <ele>420.9</ele>
        <time>2015-06-07T08:05:07Z</time>
      </trkpt>
      <trkpt lat="47.72945" lon="7.03733">
        <ele>421.7</ele>
        <time>2015-06-07T08:05:10Z</time>
      </trkpt>
      <trkpt lat="47.72952" lon="7.03721">
        <ele>422</ele>
        <time>2015-06-07T08:05:22Z</time>
      </trkpt>
      <trkpt lat="47.72958" lon="7.03703">
        <ele>422</ele>
        <time>2015-06-07T08:05:29Z</time>
      </trkpt>
      <trkpt lat="47.72962" lon="7.03698">
        <ele>422</ele>
        <time>2015-06-07T08:05:34Z</time>
      </trkpt>
      <trkpt lat="47.72965" lon="7.03692">
        <ele>422</ele>
        <time>2015-06-07T08:05:39Z</time>
      </trkpt>
      <trkpt lat="47.72966" lon="7.03684">
        <ele>422</ele>
        <time>2015-06-07T08:05:43Z</time>
      </trkpt>
      <trkpt lat="47.72969" lon="7.0367">
        <ele>422.9</ele>
        <time>2015-06-07T08:05:56Z</time>
      </trkpt>
      <trkpt lat="47.72972" lon="7.03665">
        <ele>423</ele>
        <time>2015-06-07T08:06:01Z</time>
      </trkpt>
      <trkpt lat="47.72974" lon="7.03658">
        <ele>423</ele>
        <time>2015-06-07T08:06:06Z</time>
      </trkpt>
      <trkpt lat="47.72974" lon="7.03645">
        <ele>423</ele>
        <time>2015-06-07T08:06:14Z</time>
      </trkpt>
      <trkpt lat="47.72978" lon="7.03637">
        <ele>423</ele>
        <time>2015-06-07T08:06:18Z</time>
      </trkpt>
      <trkpt lat="47.7298" lon="7.0363">
        <ele>423</ele>
        <time>2015-06-07T08:06:21Z</time>
      </trkpt>
      <trkpt lat="47.72984" lon="7.03625">
        <ele>422.1</ele>
        <time>2015-06-07T08:06:27Z</time>
      </trkpt>
      <trkpt lat="47.7299" lon="7.03626">
        <ele>422</ele>
        <time>2015-06-07T08:06:31Z</time>
      </trkpt>
      <trkpt lat="47.72992" lon="7.03632">
        <ele>422</ele>
        <time>2015-06-07T08:06:35Z</time>
      </trkpt>
      <trkpt lat="47.72999" lon="7.03642">
        <ele>422</ele>
        <time>2015-06-07T08:06:42Z</time>
      </trkpt>
      <trkpt lat="47.73001" lon="7.03648">
        <ele>422</ele>
        <time>2015-06-07T08:06:47Z</time>
      </trkpt>
      <trkpt lat="47.73005" lon="7.03653">
        <ele>422</ele>
        <time>2015-06-07T08:06:55Z</time>
      </trkpt>
      <trkpt lat="47.73011" lon="7.03652">
        <ele>421</ele>
        <time>2015-06-07T08:07:00Z</time>
      </trkpt>
      <trkpt lat="47.73015" lon="7.03649">
        <ele>421</ele>
        <time>2015-06-07T08:07:02Z</time>
      </trkpt>
      <trkpt lat="47.73021" lon="7.03647">
        <ele>420.5</ele>
        <time>2015-06-07T08:07:05Z</time>
      </trkpt>
      <trkpt lat="47.73028" lon="7.03646">
        <ele>420</ele>
        <time>2015-06-07T08:07:10Z</time>
      </trkpt>
      <trkpt lat="47.73033" lon="7.03644">
        <ele>420</ele>
        <time>2015-06-07T08:07:14Z</time>
      </trkpt>
      <trkpt lat="47.73043" lon="7.03629">
        <ele>420</ele>
        <time>2015-06-07T08:07:28Z</time>
      </trkpt>
      <trkpt lat="47.73047" lon="7.03625">
        <ele>419</ele>
        <time>2015-06-07T08:07:33Z</time>
      </trkpt>
      <trkpt lat="47.73052" lon="7.03626">
        <ele>419</ele>
        <time>2015-06-07T08:07:42Z</time>
      </trkpt>
      <trkpt lat="47.73061" lon="7.03631">
        <ele>419</ele>
        <time>2015-06-07T08:07:52Z</time>
      </trkpt>
      <trkpt lat="47.7307" lon="7.0363">
        <ele>419</ele>
        <time>2015-06-07T08:07:59Z</time>
      </trkpt>
      <trkpt lat="47.73075" lon="7.03626">
        <ele>419</ele>
        <time>2015-06-07T08:08:03Z</time>
      </trkpt>
      <trkpt lat="47.7308" lon="7.03626">
        <ele>418.2</ele>
        <time>2015-06-07T08:08:09Z</time>
      </trkpt>
      <trkpt lat="47.73085" lon="7.03621">
        <ele>418</ele>
        <time>2015-06-07T08:08:13Z</time>
      </trkpt>
      <trkpt lat="47.73092" lon="7.03611">
        <ele>417.1</ele>
        <time>2015-06-07T08:08:20Z</time>
      </trkpt>
      <trkpt lat="47.73096" lon="7.03599">
        <ele>417</ele>
        <time>2015-06-07T08:08:26Z</time>
      </trkpt>
      <trkpt lat="47.73096" lon="7.03592">
        <ele>417</ele>
        <time>2015-06-07T08:08:30Z</time>
      </trkpt>
      <trkpt lat="47.73096" lon="7.03584">
        <ele>415.3</ele>
        <time>2015-06-07T08:08:36Z</time>
      </trkpt>
      <trkpt lat="47.73102" lon="7.03574">
        <ele>407.2</ele>
        <time>2015-06-07T08:08:46Z</time>
      </trkpt>
      <trkpt lat="47.73104" lon="7.03566">
        <ele>406.1</ele>
        <time>2015-06-07T08:08:50Z</time>
      </trkpt>
      <trkpt lat="47.73107" lon="7.0356">
        <ele>406.1</ele>
        <time>2015-06-07T08:08:53Z</time>
      </trkpt>
      <trkpt lat="47.73114" lon="7.03544">
        <ele>402.2</ele>
        <time>2015-06-07T08:09:03Z</time>
      </trkpt>
      <trkpt lat="47.73118" lon="7.03534">
        <ele>401</ele>
        <time>2015-06-07T08:09:11Z</time>
      </trkpt>
      <trkpt lat="47.73121" lon="7.03528">
        <ele>401</ele>
        <time>2015-06-07T08:09:16Z</time>
      </trkpt>
      <trkpt lat="47.73121" lon="7.0352">
        <ele>401</ele>
        <time>2015-06-07T08:09:21Z</time>
      </trkpt>
      <trkpt lat="47.73124" lon="7.03515">
        <ele>401</ele>
        <time>2015-06-07T08:09:24Z</time>
      </trkpt>
      <trkpt lat="47.73127" lon="7.03509">
        <ele>401</ele>
        <time>2015-06-07T08:09:27Z</time>
      </trkpt>
      <trkpt lat="47.73127" lon="7.03502">
        <ele>401</ele>
        <time>2015-06-07T08:09:32Z</time>
      </trkpt>
      <trkpt lat="47.7313" lon="7.03498">
        <ele>402.4</ele>
        <time>2015-06-07T08:09:39Z</time>
      </trkpt>
      <trkpt lat="47.73136" lon="7.03494">
        <ele>403.7</ele>
        <time>2015-06-07T08:09:43Z</time>
      </trkpt>
      <trkpt lat="47.7314" lon="7.03488">
        <ele>404</ele>
        <time>2015-06-07T08:09:47Z</time>
      </trkpt>
      <trkpt lat="47.73146" lon="7.03468">
        <ele>404.9</ele>
        <time>2015-06-07T08:09:57Z</time>
      </trkpt>
      <trkpt lat="47.73149" lon="7.03462">
        <ele>405</ele>
        <time>2015-06-07T08:10:01Z</time>
      </trkpt>
      <trkpt lat="47.73152" lon="7.03455">
        <ele>405.9</ele>
        <time>2015-06-07T08:10:05Z</time>
      </trkpt>
      <trkpt lat="47.73154" lon="7.03448">
        <ele>406.7</ele>
        <time>2015-06-07T08:10:10Z</time>
      </trkpt>
      <trkpt lat="47.73158" lon="7.03443">
        <ele>407</ele>
        <time>2015-06-07T08:10:15Z</time>
      </trkpt>
      <trkpt lat="47.73163" lon="7.03433">
        <ele>407</ele>
        <time>2015-06-07T08:10:20Z</time>
      </trkpt>
      <trkpt lat="47.73164" lon="7.03426">
        <ele>407</ele>
        <time>2015-06-07T08:10:24Z</time>
      </trkpt>
      <trkpt lat="47.73165" lon="7.0342">
        <ele>407</ele>
        <time>2015-06-07T08:10:27Z</time>
      </trkpt>
      <trkpt lat="47.73165" lon="7.03412">
        <ele>407</ele>
        <time>2015-06-07T08:10:32Z</time>
      </trkpt>
      <trkpt lat="47.73164" lon="7.03405">
        <ele>407</ele>
        <time>2015-06-07T08:10:37Z</time>
      </trkpt>
      <trkpt lat="47.73166" lon="7.03398">
        <ele>407</ele>
        <time>2015-06-07T08:10:42Z</time>
      </trkpt>
      <trkpt lat="47.73168" lon="7.0339">
        <ele>406</ele>
        <time>2015-06-07T08:10:47Z</time>
      </trkpt>
      <trkpt lat="47.73173" lon="7.03379">
        <ele>406</ele>
        <time>2015-06-07T08:10:55Z</time>
      </trkpt>
      <trkpt lat="47.73178" lon="7.03373">
        <ele>406</ele>
        <time>2015-06-07T08:11:00Z</time>
      </trkpt>
      <trkpt lat="47.73182" lon="7.03368">
        <ele>406</ele>
        <time>2015-06-07T08:11:04Z</time>
      </trkpt>
      <trkpt lat="47.73193" lon="7.03354">
        <ele>406</ele>
        <time>2015-06-07T08:11:15Z</time>
      </trkpt>
      <trkpt lat="47.73198" lon="7.03343">
        <ele>406</ele>
        <time>2015-06-07T08:11:23Z</time>
      </trkpt>
      <trkpt lat="47.73198" lon="7.03335">
        <ele>406</ele>
        <time>2015-06-07T08:11:28Z</time>
      </trkpt>
      <trkpt lat="47.73199" lon="7.03328">
        <ele>406</ele>
        <time>2015-06-07T08:11:33Z</time>
      </trkpt>
      <trkpt lat="47.73203" lon="7.03313">
        <ele>406.9</ele>
        <time>2015-06-07T08:11:42Z</time>
      </trkpt>
      <trkpt lat="47.73206" lon="7.03307">
        <ele>407</ele>
        <time>2015-06-07T08:11:46Z</time>
      </trkpt>
      <trkpt lat="47.73211" lon="7.03295">
        <ele>407</ele>
        <time>2015-06-07T08:11:54Z</time>
      </trkpt>
      <trkpt lat="47.73214" lon="7.0329">
        <ele>407</ele>
        <time>2015-06-07T08:11:59Z</time>
      </trkpt>
      <trkpt lat="47.73216" lon="7.03283">
        <ele>407</ele>
        <time>2015-06-07T08:12:03Z</time>
      </trkpt>
      <trkpt lat="47.7322" lon="7.03278">
        <ele>407</ele>
        <time>2015-06-07T08:12:06Z</time>
      </trkpt>
      <trkpt lat="47.73227" lon="7.03268">
        <ele>407</ele>
        <time>2015-06-07T08:12:13Z</time>
      </trkpt>
      <trkpt lat="47.73228" lon="7.0326">
        <ele>407</ele>
        <time>2015-06-07T08:12:18Z</time>
      </trkpt>
      <trkpt lat="47.73236" lon="7.03252">
        <ele>407</ele>
        <time>2015-06-07T08:12:24Z</time>
      </trkpt>
      <trkpt lat="47.73239" lon="7.03238">
        <ele>407</ele>
        <time>2015-06-07T08:12:32Z</time>
      </trkpt>
      <trkpt lat="47.73241" lon="7.03232">
        <ele>407</ele>
        <time>2015-06-07T08:12:37Z</time>
      </trkpt>
      <trkpt lat="47.73243" lon="7.03226">
        <ele>407</ele>
        <time>2015-06-07T08:12:41Z</time>
      </trkpt>
      <trkpt lat="47.73246" lon="7.03219">
        <ele>408</ele>
        <time>2015-06-07T08:12:46Z</time>
      </trkpt>
      <trkpt lat="47.73251" lon="7.03207">
        <ele>408</ele>
        <time>2015-06-07T08:12:53Z</time>
      </trkpt>
      <trkpt lat="47.73253" lon="7.03197">
        <ele>409</ele>
        <time>2015-06-07T08:13:00Z</time>
      </trkpt>
      <trkpt lat="47.7326" lon="7.0318">
        <ele>410</ele>
        <time>2015-06-07T08:13:11Z</time>
      </trkpt>
      <trkpt lat="47.73263" lon="7.03173">
        <ele>411</ele>
        <time>2015-06-07T08:13:15Z</time>
      </trkpt>
      <trkpt lat="47.73267" lon="7.03167">
        <ele>411</ele>
        <time>2015-06-07T08:13:22Z</time>
      </trkpt>
      <trkpt lat="47.73268" lon="7.0316">
        <ele>413</ele>
        <time>2015-06-07T08:13:37Z</time>
      </trkpt>
      <trkpt lat="47.7327" lon="7.03153">
        <ele>413</ele>
        <time>2015-06-07T08:13:42Z</time>
      </trkpt>
      <trkpt lat="47.73274" lon="7.03136">
        <ele>412.1</ele>
        <time>2015-06-07T08:13:52Z</time>
      </trkpt>
      <trkpt lat="47.73275" lon="7.03129">
        <ele>411.1</ele>
        <time>2015-06-07T08:13:56Z</time>
      </trkpt>
      <trkpt lat="47.73275" lon="7.03121">
        <ele>410.3</ele>
        <time>2015-06-07T08:14:01Z</time>
      </trkpt>
      <trkpt lat="47.7328" lon="7.03109">
        <ele>409.1</ele>
        <time>2015-06-07T08:14:08Z</time>
      </trkpt>
      <trkpt lat="47.73284" lon="7.03103">
        <ele>409</ele>
        <time>2015-06-07T08:14:13Z</time>
      </trkpt>
      <trkpt lat="47.73289" lon="7.0309">
        <ele>407.1</ele>
        <time>2015-06-07T08:14:21Z</time>
      </trkpt>
      <trkpt lat="47.73294" lon="7.03087">
        <ele>407</ele>
        <time>2015-06-07T08:14:25Z</time>
      </trkpt>
      <trkpt lat="47.73298" lon="7.03066">
        <ele>406</ele>
        <time>2015-06-07T08:14:37Z</time>
      </trkpt>
      <trkpt lat="47.733" lon="7.0306">
        <ele>406</ele>
        <time>2015-06-07T08:14:41Z</time>
      </trkpt>
      <trkpt lat="47.73302" lon="7.03053">
        <ele>406</ele>
        <time>2015-06-07T08:14:45Z</time>
      </trkpt>
      <trkpt lat="47.73305" lon="7.03047">
        <ele>406</ele>
        <time>2015-06-07T08:14:49Z</time>
      </trkpt>
      <trkpt lat="47.73311" lon="7.03037">
        <ele>406</ele>
        <time>2015-06-07T08:14:58Z</time>
      </trkpt>
      <trkpt lat="47.73316" lon="7.03025">
        <ele>407</ele>
        <time>2015-06-07T08:15:07Z</time>
      </trkpt>
      <trkpt lat="47.73319" lon="7.03014">
        <ele>408</ele>
        <time>2015-06-07T08:15:13Z</time>
      </trkpt>
      <trkpt lat="47.73321" lon="7.03008">
        <ele>408</ele>
        <time>2015-06-07T08:15:16Z</time>
      </trkpt>
      <trkpt lat="47.73325" lon="7.03001">
        <ele>409</ele>
        <time>2015-06-07T08:15:21Z</time>
      </trkpt>
      <trkpt lat="47.73327" lon="7.02993">
        <ele>409</ele>
        <time>2015-06-07T08:15:27Z</time>
      </trkpt>
      <trkpt lat="47.73333" lon="7.02977">
        <ele>409.9</ele>
        <time>2015-06-07T08:15:36Z</time>
      </trkpt>
      <trkpt lat="47.73336" lon="7.02971">
        <ele>411.7</ele>
        <time>2015-06-07T08:15:41Z</time>
      </trkpt>
      <trkpt lat="47.73342" lon="7.02962">
        <ele>412</ele>
        <time>2015-06-07T08:15:46Z</time>
      </trkpt>
      <trkpt lat="47.73346" lon="7.02956">
        <ele>413.4</ele>
        <time>2015-06-07T08:15:50Z</time>
      </trkpt>
      <trkpt lat="47.73352" lon="7.02936">
        <ele>417</ele>
        <time>2015-06-07T08:16:01Z</time>
      </trkpt>
      <trkpt lat="47.73353" lon="7.02929">
        <ele>417</ele>
        <time>2015-06-07T08:16:05Z</time>
      </trkpt>
      <trkpt lat="47.73355" lon="7.02923">
        <ele>417</ele>
        <time>2015-06-07T08:16:10Z</time>
      </trkpt>
      <trkpt lat="47.73355" lon="7.02917">
        <ele>417</ele>
        <time>2015-06-07T08:16:14Z</time>
      </trkpt>
      <trkpt lat="47.73361" lon="7.02913">
        <ele>417</ele>
        <time>2015-06-07T08:16:26Z</time>
      </trkpt>
      <trkpt lat="47.7336" lon="7.02905">
        <ele>417</ele>
        <time>2015-06-07T08:16:29Z</time>
      </trkpt>
      <trkpt lat="47.73357" lon="7.02898">
        <ele>417</ele>
        <time>2015-06-07T08:16:32Z</time>
      </trkpt>
      <trkpt lat="47.73357" lon="7.0289">
        <ele>417</ele>
        <time>2015-06-07T08:16:36Z</time>
      </trkpt>
      <trkpt lat="47.73359" lon="7.02885">
        <ele>417</ele>
        <time>2015-06-07T08:16:40Z</time>
      </trkpt>
      <trkpt lat="47.7336" lon="7.02878">
        <ele>414.7</ele>
        <time>2015-06-07T08:16:46Z</time>
      </trkpt>
      <trkpt lat="47.73363" lon="7.02872">
        <ele>414.7</ele>
        <time>2015-06-07T08:16:49Z</time>
      </trkpt>
      <trkpt lat="47.73368" lon="7.02859">
        <ele>413</ele>
        <time>2015-06-07T08:16:55Z</time>
      </trkpt>
      <trkpt lat="47.7337" lon="7.02854">
        <ele>413</ele>
        <time>2015-06-07T08:16:58Z</time>
      </trkpt>
      <trkpt lat="47.73373" lon="7.02846">
        <ele>413</ele>
        <time>2015-06-07T08:17:03Z</time>
      </trkpt>
      <trkpt lat="47.73376" lon="7.0284">
        <ele>413</ele>
        <time>2015-06-07T08:17:07Z</time>
      </trkpt>
      <trkpt lat="47.7338" lon="7.02828">
        <ele>413</ele>
        <time>2015-06-07T08:17:13Z</time>
      </trkpt>
      <trkpt lat="47.7339" lon="7.02812">
        <ele>413</ele>
        <time>2015-06-07T08:17:27Z</time>
      </trkpt>
      <trkpt lat="47.73393" lon="7.02808">
        <ele>413.9</ele>
        <time>2015-06-07T08:17:31Z</time>
      </trkpt>
      <trkpt lat="47.73395" lon="7.028">
        <ele>414</ele>
        <time>2015-06-07T08:17:34Z</time>
      </trkpt>
      <trkpt lat="47.73398" lon="7.02795">
        <ele>414</ele>
        <time>2015-06-07T08:17:36Z</time>
      </trkpt>
      <trkpt lat="47.73406" lon="7.02786">
        <ele>415.7</ele>
        <time>2015-06-07T08:17:41Z</time>
      </trkpt>
      <trkpt lat="47.73409" lon="7.0278">
        <ele>415.9</ele>
        <time>2015-06-07T08:17:46Z</time>
      </trkpt>
      <trkpt lat="47.73413" lon="7.02774">
        <ele>417.7</ele>
        <time>2015-06-07T08:17:51Z</time>
      </trkpt>
      <trkpt lat="47.73416" lon="7.02767">
        <ele>419</ele>
        <time>2015-06-07T08:17:56Z</time>
      </trkpt>
      <trkpt lat="47.7342" lon="7.02762">
        <ele>419</ele>
        <time>2015-06-07T08:18:00Z</time>
      </trkpt>
      <trkpt lat="47.73423" lon="7.02756">
        <ele>419.9</ele>
        <time>2015-06-07T08:18:04Z</time>
      </trkpt>
      <trkpt lat="47.73425" lon="7.02742">
        <ele>421</ele>
        <time>2015-06-07T08:18:15Z</time>
      </trkpt>
      <trkpt lat="47.73427" lon="7.02733">
        <ele>421</ele>
        <time>2015-06-07T08:18:20Z</time>
      </trkpt>
      <trkpt lat="47.7343" lon="7.02727">
        <ele>421.9</ele>
        <time>2015-06-07T08:18:24Z</time>
      </trkpt>
      <trkpt lat="47.73431" lon="7.02719">
        <ele>422</ele>
        <time>2015-06-07T08:18:31Z</time>
      </trkpt>
      <trkpt lat="47.73434" lon="7.02712">
        <ele>423</ele>
        <time>2015-06-07T08:18:35Z</time>
      </trkpt>
      <trkpt lat="47.7344" lon="7.02701">
        <ele>423</ele>
        <time>2015-06-07T08:18:45Z</time>
      </trkpt>
      <trkpt lat="47.73447" lon="7.02683">
        <ele>424.7</ele>
        <time>2015-06-07T08:18:56Z</time>
      </trkpt>
      <trkpt lat="47.73454" lon="7.02665">
        <ele>425</ele>
        <time>2015-06-07T08:19:04Z</time>
      </trkpt>
      <trkpt lat="47.7346" lon="7.02646">
        <ele>425</ele>
        <time>2015-06-07T08:19:13Z</time>
      </trkpt>
      <trkpt lat="47.73462" lon="7.02639">
        <ele>425</ele>
        <time>2015-06-07T08:19:16Z</time>
      </trkpt>
      <trkpt lat="47.7347" lon="7.02623">
        <ele>425.8</ele>
        <time>2015-06-07T08:19:24Z</time>
      </trkpt>
      <trkpt lat="47.73473" lon="7.02617">
        <ele>426.9</ele>
        <time>2015-06-07T08:19:27Z</time>
      </trkpt>
      <trkpt lat="47.73475" lon="7.0261">
        <ele>427</ele>
        <time>2015-06-07T08:19:32Z</time>
      </trkpt>
      <trkpt lat="47.73478" lon="7.02604">
        <ele>427</ele>
        <time>2015-06-07T08:19:37Z</time>
      </trkpt>
      <trkpt lat="47.73483" lon="7.02592">
        <ele>427</ele>
        <time>2015-06-07T08:19:45Z</time>
      </trkpt>
      <trkpt lat="47.73487" lon="7.02588">
        <ele>427</ele>
        <time>2015-06-07T08:19:50Z</time>
      </trkpt>
      <trkpt lat="47.73495" lon="7.0258">
        <ele>428</ele>
        <time>2015-06-07T08:19:59Z</time>
      </trkpt>
      <trkpt lat="47.73502" lon="7.02568">
        <ele>428</ele>
        <time>2015-06-07T08:20:11Z</time>
      </trkpt>
      <trkpt lat="47.73503" lon="7.02561">
        <ele>428</ele>
        <time>2015-06-07T08:20:16Z</time>
      </trkpt>
      <trkpt lat="47.73511" lon="7.0255">
        <ele>428</ele>
        <time>2015-06-07T08:20:25Z</time>
      </trkpt>
      <trkpt lat="47.73515" lon="7.02544">
        <ele>428</ele>
        <time>2015-06-07T08:20:28Z</time>
      </trkpt>
      <trkpt lat="47.73518" lon="7.02539">
        <ele>427.2</ele>
        <time>2015-06-07T08:20:36Z</time>
      </trkpt>
      <trkpt lat="47.73521" lon="7.02532">
        <ele>427</ele>
        <time>2015-06-07T08:20:41Z</time>
      </trkpt>
      <trkpt lat="47.73523" lon="7.02516">
        <ele>425.1</ele>
        <time>2015-06-07T08:20:52Z</time>
      </trkpt>
      <trkpt lat="47.73526" lon="7.02511">
        <ele>424.3</ele>
        <time>2015-06-07T08:20:57Z</time>
      </trkpt>
      <trkpt lat="47.73538" lon="7.02501">
        <ele>421.5</ele>
        <time>2015-06-07T08:21:07Z</time>
      </trkpt>
      <trkpt lat="47.73546" lon="7.02488">
        <ele>419.5</ele>
        <time>2015-06-07T08:21:17Z</time>
      </trkpt>
      <trkpt lat="47.73552" lon="7.02477">
        <ele>419</ele>
        <time>2015-06-07T08:21:23Z</time>
      </trkpt>
      <trkpt lat="47.73555" lon="7.0247">
        <ele>418.1</ele>
        <time>2015-06-07T08:21:29Z</time>
      </trkpt>
      <trkpt lat="47.73562" lon="7.0246">
        <ele>418</ele>
        <time>2015-06-07T08:21:37Z</time>
      </trkpt>
      <trkpt lat="47.73568" lon="7.0245">
        <ele>418</ele>
        <time>2015-06-07T08:21:46Z</time>
      </trkpt>
      <trkpt lat="47.73571" lon="7.02444">
        <ele>418</ele>
        <time>2015-06-07T08:21:50Z</time>
      </trkpt>
      <trkpt lat="47.73573" lon="7.02438">
        <ele>418</ele>
        <time>2015-06-07T08:21:56Z</time>
      </trkpt>
      <trkpt lat="47.73576" lon="7.02431">
        <ele>418</ele>
        <time>2015-06-07T08:22:01Z</time>
      </trkpt>
      <trkpt lat="47.7358" lon="7.02424">
        <ele>418</ele>
        <time>2015-06-07T08:22:06Z</time>
      </trkpt>
      <trkpt lat="47.73583" lon="7.02419">
        <ele>418</ele>
        <time>2015-06-07T08:22:10Z</time>
      </trkpt>
      <trkpt lat="47.73587" lon="7.02415">
        <ele>418</ele>
        <time>2015-06-07T08:22:13Z</time>
      </trkpt>
      <trkpt lat="47.73593" lon="7.0241">
        <ele>418</ele>
        <time>2015-06-07T08:22:18Z</time>
      </trkpt>
      <trkpt lat="47.73597" lon="7.02406">
        <ele>418</ele>
        <time>2015-06-07T08:22:21Z</time>
      </trkpt>
      <trkpt lat="47.73601" lon="7.02403">
        <ele>418</ele>
        <time>2015-06-07T08:22:26Z</time>
      </trkpt>
      <trkpt lat="47.73604" lon="7.02398">
        <ele>418</ele>
        <time>2015-06-07T08:22:29Z</time>
      </trkpt>
      <trkpt lat="47.73607" lon="7.02392">
        <ele>418</ele>
        <time>2015-06-07T08:22:32Z</time>
      </trkpt>
      <trkpt lat="47.73611" lon="7.02387">
        <ele>418</ele>
        <time>2015-06-07T08:22:35Z</time>
      </trkpt>
      <trkpt lat="47.7362" lon="7.02382">
        <ele>418.9</ele>
        <time>2015-06-07T08:22:42Z</time>
      </trkpt>
      <trkpt lat="47.73628" lon="7.02376">
        <ele>419</ele>
        <time>2015-06-07T08:22:48Z</time>
      </trkpt>
      <trkpt lat="47.73633" lon="7.02368">
        <ele>419</ele>
        <time>2015-06-07T08:22:54Z</time>
      </trkpt>
      <trkpt lat="47.73634" lon="7.02362">
        <ele>419</ele>
        <time>2015-06-07T08:23:00Z</time>
      </trkpt>
      <trkpt lat="47.73639" lon="7.0235">
        <ele>419.9</ele>
        <time>2015-06-07T08:23:11Z</time>
      </trkpt>
      <trkpt lat="47.73644" lon="7.02345">
        <ele>420</ele>
        <time>2015-06-07T08:23:16Z</time>
      </trkpt>
      <trkpt lat="47.73648" lon="7.0234">
        <ele>420</ele>
        <time>2015-06-07T08:23:20Z</time>
      </trkpt>
      <trkpt lat="47.73656" lon="7.02334">
        <ele>421</ele>
        <time>2015-06-07T08:23:26Z</time>
      </trkpt>
      <trkpt lat="47.73658" lon="7.02325">
        <ele>421.5</ele>
        <time>2015-06-07T08:23:30Z</time>
      </trkpt>
      <trkpt lat="47.73663" lon="7.0232">
        <ele>421.5</ele>
        <time>2015-06-07T08:23:34Z</time>
      </trkpt>
      <trkpt lat="47.73668" lon="7.02317">
        <ele>422</ele>
        <time>2015-06-07T08:23:37Z</time>
      </trkpt>
      <trkpt lat="47.73682" lon="7.02322">
        <ele>424</ele>
        <time>2015-06-07T08:23:55Z</time>
      </trkpt>
      <trkpt lat="47.73696" lon="7.02324">
        <ele>424.9</ele>
        <time>2015-06-07T08:24:04Z</time>
      </trkpt>
      <trkpt lat="47.73705" lon="7.02327">
        <ele>425</ele>
        <time>2015-06-07T08:24:09Z</time>
      </trkpt>
      <trkpt lat="47.73711" lon="7.02328">
        <ele>425.7</ele>
        <time>2015-06-07T08:24:12Z</time>
      </trkpt>
      <trkpt lat="47.73715" lon="7.02332">
        <ele>426</ele>
        <time>2015-06-07T08:24:16Z</time>
      </trkpt>
      <trkpt lat="47.73717" lon="7.02341">
        <ele>426.9</ele>
        <time>2015-06-07T08:24:21Z</time>
      </trkpt>
      <trkpt lat="47.73721" lon="7.02347">
        <ele>427</ele>
        <time>2015-06-07T08:24:31Z</time>
      </trkpt>
      <trkpt lat="47.73728" lon="7.0235">
        <ele>427.5</ele>
        <time>2015-06-07T08:24:35Z</time>
      </trkpt>
      <trkpt lat="47.73732" lon="7.02347">
        <ele>430.9</ele>
        <time>2015-06-07T08:24:50Z</time>
      </trkpt>
      <trkpt lat="47.73738" lon="7.02349">
        <ele>432</ele>
        <time>2015-06-07T08:25:02Z</time>
      </trkpt>
      <trkpt lat="47.73748" lon="7.02346">
        <ele>432</ele>
        <time>2015-06-07T08:25:10Z</time>
      </trkpt>
      <trkpt lat="47.73761" lon="7.02348">
        <ele>432</ele>
        <time>2015-06-07T08:25:23Z</time>
      </trkpt>
      <trkpt lat="47.73768" lon="7.02357">
        <ele>432</ele>
        <time>2015-06-07T08:25:34Z</time>
      </trkpt>
      <trkpt lat="47.7377" lon="7.02363">
        <ele>432</ele>
        <time>2015-06-07T08:25:40Z</time>
      </trkpt>
      <trkpt lat="47.73775" lon="7.02378">
        <ele>429</ele>
        <time>2015-06-07T08:25:56Z</time>
      </trkpt>
      <trkpt lat="47.73763" lon="7.02383">
        <ele>429</ele>
        <time>2015-06-07T08:26:07Z</time>
      </trkpt>
      <trkpt lat="47.73768" lon="7.02383">
        <ele>428</ele>
        <time>2015-06-07T08:26:21Z</time>
      </trkpt>
      <trkpt lat="47.73772" lon="7.02388">
        <ele>426.6</ele>
        <time>2015-06-07T08:26:25Z</time>
      </trkpt>
      <trkpt lat="47.73774" lon="7.02395">
        <ele>424.5</ele>
        <time>2015-06-07T08:26:30Z</time>
      </trkpt>
      <trkpt lat="47.73777" lon="7.02409">
        <ele>423.5</ele>
        <time>2015-06-07T08:26:38Z</time>
      </trkpt>
      <trkpt lat="47.73777" lon="7.02416">
        <ele>423</ele>
        <time>2015-06-07T08:26:43Z</time>
      </trkpt>
      <trkpt lat="47.73783" lon="7.0243">
        <ele>423</ele>
        <time>2015-06-07T08:26:49Z</time>
      </trkpt>
      <trkpt lat="47.73785" lon="7.02435">
        <ele>423</ele>
        <time>2015-06-07T08:26:52Z</time>
      </trkpt>
      <trkpt lat="47.73789" lon="7.0244">
        <ele>423</ele>
        <time>2015-06-07T08:26:56Z</time>
      </trkpt>
      <trkpt lat="47.73789" lon="7.02447">
        <ele>423</ele>
        <time>2015-06-07T08:27:00Z</time>
      </trkpt>
      <trkpt lat="47.73791" lon="7.02462">
        <ele>423</ele>
        <time>2015-06-07T08:27:07Z</time>
      </trkpt>
      <trkpt lat="47.73793" lon="7.02476">
        <ele>423.8</ele>
        <time>2015-06-07T08:27:15Z</time>
      </trkpt>
      <trkpt lat="47.73798" lon="7.02488">
        <ele>424</ele>
        <time>2015-06-07T08:27:22Z</time>
      </trkpt>
      <trkpt lat="47.73799" lon="7.02496">
        <ele>424</ele>
        <time>2015-06-07T08:27:27Z</time>
      </trkpt>
      <trkpt lat="47.738" lon="7.02504">
        <ele>424</ele>
        <time>2015-06-07T08:27:31Z</time>
      </trkpt>
      <trkpt lat="47.73801" lon="7.02512">
        <ele>424.9</ele>
        <time>2015-06-07T08:27:35Z</time>
      </trkpt>
      <trkpt lat="47.73802" lon="7.02526">
        <ele>426</ele>
        <time>2015-06-07T08:27:42Z</time>
      </trkpt>
      <trkpt lat="47.73804" lon="7.02533">
        <ele>426</ele>
        <time>2015-06-07T08:27:46Z</time>
      </trkpt>
      <trkpt lat="47.73805" lon="7.02541">
        <ele>426</ele>
        <time>2015-06-07T08:27:49Z</time>
      </trkpt>
      <trkpt lat="47.73806" lon="7.02555">
        <ele>426.5</ele>
        <time>2015-06-07T08:27:54Z</time>
      </trkpt>
      <trkpt lat="47.73809" lon="7.02569">
        <ele>427</ele>
        <time>2015-06-07T08:28:01Z</time>
      </trkpt>
      <trkpt lat="47.73811" lon="7.02576">
        <ele>428</ele>
        <time>2015-06-07T08:28:09Z</time>
      </trkpt>
      <trkpt lat="47.73815" lon="7.02582">
        <ele>428.5</ele>
        <time>2015-06-07T08:28:13Z</time>
      </trkpt>
      <trkpt lat="47.73817" lon="7.02589">
        <ele>429</ele>
        <time>2015-06-07T08:28:17Z</time>
      </trkpt>
      <trkpt lat="47.73817" lon="7.02602">
        <ele>429.7</ele>
        <time>2015-06-07T08:28:23Z</time>
      </trkpt>
      <trkpt lat="47.73819" lon="7.02609">
        <ele>430</ele>
        <time>2015-06-07T08:28:27Z</time>
      </trkpt>
      <trkpt lat="47.73823" lon="7.02616">
        <ele>431</ele>
        <time>2015-06-07T08:28:32Z</time>
      </trkpt>
      <trkpt lat="47.73826" lon="7.02629">
        <ele>431</ele>
        <time>2015-06-07T08:28:40Z</time>
      </trkpt>
      <trkpt lat="47.73828" lon="7.02638">
        <ele>431</ele>
        <time>2015-06-07T08:28:45Z</time>
      </trkpt>
      <trkpt lat="47.73829" lon="7.02647">
        <ele>431</ele>
        <time>2015-06-07T08:28:50Z</time>
      </trkpt>
      <trkpt lat="47.73831" lon="7.02662">
        <ele>431</ele>
        <time>2015-06-07T08:28:57Z</time>
      </trkpt>
      <trkpt lat="47.7383" lon="7.02683">
        <ele>431</ele>
        <time>2015-06-07T08:29:07Z</time>
      </trkpt>
      <trkpt lat="47.73831" lon="7.02689">
        <ele>431</ele>
        <time>2015-06-07T08:29:10Z</time>
      </trkpt>
      <trkpt lat="47.73831" lon="7.02697">
        <ele>431</ele>
        <time>2015-06-07T08:29:15Z</time>
      </trkpt>
      <trkpt lat="47.73834" lon="7.02704">
        <ele>431</ele>
        <time>2015-06-07T08:29:20Z</time>
      </trkpt>
      <trkpt lat="47.73837" lon="7.02709">
        <ele>430.2</ele>
        <time>2015-06-07T08:29:24Z</time>
      </trkpt>
      <trkpt lat="47.73839" lon="7.02717">
        <ele>430.1</ele>
        <time>2015-06-07T08:29:28Z</time>
      </trkpt>
      <trkpt lat="47.7384" lon="7.02724">
        <ele>430</ele>
        <time>2015-06-07T08:29:32Z</time>
      </trkpt>
      <trkpt lat="47.73841" lon="7.02732">
        <ele>430</ele>
        <time>2015-06-07T08:29:37Z</time>
      </trkpt>
      <trkpt lat="47.73844" lon="7.02739">
        <ele>429</ele>
        <time>2015-06-07T08:29:41Z</time>
      </trkpt>
      <trkpt lat="47.73844" lon="7.02745">
        <ele>429</ele>
        <time>2015-06-07T08:29:44Z</time>
      </trkpt>
      <trkpt lat="47.73845" lon="7.02753">
        <ele>428</ele>
        <time>2015-06-07T08:29:47Z</time>
      </trkpt>
      <trkpt lat="47.73849" lon="7.02763">
        <ele>426.6</ele>
        <time>2015-06-07T08:29:53Z</time>
      </trkpt>
      <trkpt lat="47.73854" lon="7.02782">
        <ele>426</ele>
        <time>2015-06-07T08:30:04Z</time>
      </trkpt>
      <trkpt lat="47.73858" lon="7.02788">
        <ele>426</ele>
        <time>2015-06-07T08:30:09Z</time>
      </trkpt>
      <trkpt lat="47.73861" lon="7.02793">
        <ele>426</ele>
        <time>2015-06-07T08:30:14Z</time>
      </trkpt>
      <trkpt lat="47.73864" lon="7.02798">
        <ele>426</ele>
        <time>2015-06-07T08:30:18Z</time>
      </trkpt>
      <trkpt lat="47.73866" lon="7.02814">
        <ele>426</ele>
        <time>2015-06-07T08:30:28Z</time>
      </trkpt>
      <trkpt lat="47.73869" lon="7.0282">
        <ele>426</ele>
        <time>2015-06-07T08:30:31Z</time>
      </trkpt>
      <trkpt lat="47.73871" lon="7.02827">
        <ele>426</ele>
        <time>2015-06-07T08:30:35Z</time>
      </trkpt>
      <trkpt lat="47.73875" lon="7.0284">
        <ele>426</ele>
        <time>2015-06-07T08:30:43Z</time>
      </trkpt>
      <trkpt lat="47.73878" lon="7.02846">
        <ele>426</ele>
        <time>2015-06-07T08:30:47Z</time>
      </trkpt>
      <trkpt lat="47.73879" lon="7.02855">
        <ele>426</ele>
        <time>2015-06-07T08:30:52Z</time>
      </trkpt>
      <trkpt lat="47.7388" lon="7.02863">
        <ele>425.1</ele>
        <time>2015-06-07T08:30:56Z</time>
      </trkpt>
      <trkpt lat="47.73882" lon="7.0287">
        <ele>424.1</ele>
        <time>2015-06-07T08:31:00Z</time>
      </trkpt>
      <trkpt lat="47.73888" lon="7.02882">
        <ele>424</ele>
        <time>2015-06-07T08:31:06Z</time>
      </trkpt>
      <trkpt lat="47.73892" lon="7.02889">
        <ele>423</ele>
        <time>2015-06-07T08:31:10Z</time>
      </trkpt>
      <trkpt lat="47.73894" lon="7.02895">
        <ele>423</ele>
        <time>2015-06-07T08:31:14Z</time>
      </trkpt>
      <trkpt lat="47.73894" lon="7.02903">
        <ele>423</ele>
        <time>2015-06-07T08:31:17Z</time>
      </trkpt>
      <trkpt lat="47.73897" lon="7.02909">
        <ele>423</ele>
        <time>2015-06-07T08:31:22Z</time>
      </trkpt>
      <trkpt lat="47.73901" lon="7.02913">
        <ele>422</ele>
        <time>2015-06-07T08:31:25Z</time>
      </trkpt>
      <trkpt lat="47.73904" lon="7.02919">
        <ele>422</ele>
        <time>2015-06-07T08:31:29Z</time>
      </trkpt>
      <trkpt lat="47.73908" lon="7.02926">
        <ele>422</ele>
        <time>2015-06-07T08:31:34Z</time>
      </trkpt>
      <trkpt lat="47.73912" lon="7.02931">
        <ele>422</ele>
        <time>2015-06-07T08:31:39Z</time>
      </trkpt>
      <trkpt lat="47.73915" lon="7.02937">
        <ele>422</ele>
        <time>2015-06-07T08:31:43Z</time>
      </trkpt>
      <trkpt lat="47.73923" lon="7.02946">
        <ele>421.1</ele>
        <time>2015-06-07T08:31:52Z</time>
      </trkpt>
      <trkpt lat="47.73929" lon="7.02956">
        <ele>420.1</ele>
        <time>2015-06-07T08:32:00Z</time>
      </trkpt>
      <trkpt lat="47.73934" lon="7.0297">
        <ele>420</ele>
        <time>2015-06-07T08:32:07Z</time>
      </trkpt>
      <trkpt lat="47.73936" lon="7.02977">
        <ele>419.1</ele>
        <time>2015-06-07T08:32:09Z</time>
      </trkpt>
      <trkpt lat="47.73939" lon="7.02985">
        <ele>419</ele>
        <time>2015-06-07T08:32:14Z</time>
      </trkpt>
      <trkpt lat="47.73944" lon="7.02997">
        <ele>419</ele>
        <time>2015-06-07T08:32:17Z</time>
      </trkpt>
      <trkpt lat="47.73948" lon="7.03009">
        <ele>419</ele>
        <time>2015-06-07T08:32:23Z</time>
      </trkpt>
      <trkpt lat="47.73954" lon="7.03028">
        <ele>419</ele>
        <time>2015-06-07T08:32:34Z</time>
      </trkpt>
      <trkpt lat="47.7396" lon="7.03047">
        <ele>419</ele>
        <time>2015-06-07T08:32:42Z</time>
      </trkpt>
      <trkpt lat="47.73963" lon="7.03052">
        <ele>419</ele>
        <time>2015-06-07T08:32:48Z</time>
      </trkpt>
      <trkpt lat="47.73966" lon="7.03059">
        <ele>419.5</ele>
        <time>2015-06-07T08:32:53Z</time>
      </trkpt>
      <trkpt lat="47.7397" lon="7.03064">
        <ele>419.5</ele>
        <time>2015-06-07T08:32:57Z</time>
      </trkpt>
      <trkpt lat="47.73974" lon="7.03069">
        <ele>421.7</ele>
        <time>2015-06-07T08:33:00Z</time>
      </trkpt>
      <trkpt lat="47.73979" lon="7.03072">
        <ele>421.7</ele>
        <time>2015-06-07T08:33:04Z</time>
      </trkpt>
      <trkpt lat="47.73981" lon="7.03079">
        <ele>422</ele>
        <time>2015-06-07T08:33:10Z</time>
      </trkpt>
      <trkpt lat="47.73987" lon="7.03093">
        <ele>422</ele>
        <time>2015-06-07T08:33:20Z</time>
      </trkpt>
      <trkpt lat="47.73995" lon="7.03105">
        <ele>422</ele>
        <time>2015-06-07T08:33:27Z</time>
      </trkpt>
      <trkpt lat="47.74" lon="7.03108">
        <ele>422</ele>
        <time>2015-06-07T08:33:31Z</time>
      </trkpt>
      <trkpt lat="47.74005" lon="7.0312">
        <ele>421.1</ele>
        <time>2015-06-07T08:33:39Z</time>
      </trkpt>
      <trkpt lat="47.7401" lon="7.03124">
        <ele>419.3</ele>
        <time>2015-06-07T08:33:46Z</time>
      </trkpt>
      <trkpt lat="47.74018" lon="7.03132">
        <ele>418</ele>
        <time>2015-06-07T08:33:59Z</time>
      </trkpt>
      <trkpt lat="47.74017" lon="7.03139">
        <ele>414</ele>
        <time>2015-06-07T08:34:04Z</time>
      </trkpt>
      <trkpt lat="47.74019" lon="7.03146">
        <ele>412.3</ele>
        <time>2015-06-07T08:34:08Z</time>
      </trkpt>
      <trkpt lat="47.74023" lon="7.03159">
        <ele>412</ele>
        <time>2015-06-07T08:34:14Z</time>
      </trkpt>
      <trkpt lat="47.74032" lon="7.03166">
        <ele>410.2</ele>
        <time>2015-06-07T08:34:23Z</time>
      </trkpt>
      <trkpt lat="47.74036" lon="7.03171">
        <ele>408</ele>
        <time>2015-06-07T08:34:30Z</time>
      </trkpt>
      <trkpt lat="47.74042" lon="7.03174">
        <ele>408</ele>
        <time>2015-06-07T08:34:40Z</time>
      </trkpt>
      <trkpt lat="47.74046" lon="7.03179">
        <ele>407.5</ele>
        <time>2015-06-07T08:34:45Z</time>
      </trkpt>
      <trkpt lat="47.74046" lon="7.03186">
        <ele>407</ele>
        <time>2015-06-07T08:34:50Z</time>
      </trkpt>
      <trkpt lat="47.74049" lon="7.03192">
        <ele>408</ele>
        <time>2015-06-07T08:35:01Z</time>
      </trkpt>
      <trkpt lat="47.74052" lon="7.03197">
        <ele>408</ele>
        <time>2015-06-07T08:35:42Z</time>
      </trkpt>
      <trkpt lat="47.7406" lon="7.03215">
        <ele>408</ele>
        <time>2015-06-07T08:35:54Z</time>
      </trkpt>
      <trkpt lat="47.74066" lon="7.03218">
        <ele>407.2</ele>
        <time>2015-06-07T08:36:05Z</time>
      </trkpt>
      <trkpt lat="47.74071" lon="7.03237">
        <ele>407</ele>
        <time>2015-06-07T08:36:16Z</time>
      </trkpt>
      <trkpt lat="47.74071" lon="7.03244">
        <ele>407</ele>
        <time>2015-06-07T08:36:20Z</time>
      </trkpt>
      <trkpt lat="47.74068" lon="7.03253">
        <ele>408</ele>
        <time>2015-06-07T08:36:41Z</time>
      </trkpt>
      <trkpt lat="47.74074" lon="7.03255">
        <ele>408</ele>
        <time>2015-06-07T08:36:48Z</time>
      </trkpt>
      <trkpt lat="47.74081" lon="7.03264">
        <ele>408</ele>
        <time>2015-06-07T08:36:57Z</time>
      </trkpt>
      <trkpt lat="47.74083" lon="7.03269">
        <ele>409</ele>
        <time>2015-06-07T08:37:08Z</time>
      </trkpt>
      <trkpt lat="47.74088" lon="7.03273">
        <ele>409</ele>
        <time>2015-06-07T08:37:13Z</time>
      </trkpt>
      <trkpt lat="47.74092" lon="7.03278">
        <ele>409</ele>
        <time>2015-06-07T08:37:15Z</time>
      </trkpt>
      <trkpt lat="47.74094" lon="7.03284">
        <ele>408.1</ele>
        <time>2015-06-07T08:37:18Z</time>
      </trkpt>
      <trkpt lat="47.74093" lon="7.03291">
        <ele>408</ele>
        <time>2015-06-07T08:37:31Z</time>
      </trkpt>
      <trkpt lat="47.74097" lon="7.03295">
        <ele>408</ele>
        <time>2015-06-07T08:37:41Z</time>
      </trkpt>
      <trkpt lat="47.74101" lon="7.03299">
        <ele>408</ele>
        <time>2015-06-07T08:37:46Z</time>
      </trkpt>
      <trkpt lat="47.74106" lon="7.03303">
        <ele>408</ele>
        <time>2015-06-07T08:37:49Z</time>
      </trkpt>
      <trkpt lat="47.74109" lon="7.03308">
        <ele>408</ele>
        <time>2015-06-07T08:37:53Z</time>
      </trkpt>
      <trkpt lat="47.74114" lon="7.0331">
        <ele>408</ele>
        <time>2015-06-07T08:38:02Z</time>
      </trkpt>
      <trkpt lat="47.74119" lon="7.03315">
        <ele>407.5</ele>
        <time>2015-06-07T08:38:05Z</time>
      </trkpt>
      <trkpt lat="47.74126" lon="7.03325">
        <ele>407</ele>
        <time>2015-06-07T08:38:14Z</time>
      </trkpt>
      <trkpt lat="47.74134" lon="7.03329">
        <ele>407</ele>
        <time>2015-06-07T08:38:19Z</time>
      </trkpt>
      <trkpt lat="47.74147" lon="7.03337">
        <ele>406.2</ele>
        <time>2015-06-07T08:38:31Z</time>
      </trkpt>
      <trkpt lat="47.7416" lon="7.03347">
        <ele>404</ele>
        <time>2015-06-07T08:38:46Z</time>
      </trkpt>
      <trkpt lat="47.74167" lon="7.03348">
        <ele>403</ele>
        <time>2015-06-07T08:38:51Z</time>
      </trkpt>
      <trkpt lat="47.74171" lon="7.03351">
        <ele>403</ele>
        <time>2015-06-07T08:38:54Z</time>
      </trkpt>
      <trkpt lat="47.74175" lon="7.03356">
        <ele>402</ele>
        <time>2015-06-07T08:39:00Z</time>
      </trkpt>
      <trkpt lat="47.74179" lon="7.03362">
        <ele>402</ele>
        <time>2015-06-07T08:39:03Z</time>
      </trkpt>
      <trkpt lat="47.74183" lon="7.03365">
        <ele>401</ele>
        <time>2015-06-07T08:39:11Z</time>
      </trkpt>
      <trkpt lat="47.74189" lon="7.03376">
        <ele>400.3</ele>
        <time>2015-06-07T08:39:19Z</time>
      </trkpt>
      <trkpt lat="47.74192" lon="7.03396">
        <ele>400</ele>
        <time>2015-06-07T08:39:25Z</time>
      </trkpt>
      <trkpt lat="47.74195" lon="7.03404">
        <ele>399.3</ele>
        <time>2015-06-07T08:39:27Z</time>
      </trkpt>
      <trkpt lat="47.742" lon="7.03408">
        <ele>399</ele>
        <time>2015-06-07T08:39:32Z</time>
      </trkpt>
      <trkpt lat="47.74203" lon="7.03413">
        <ele>399</ele>
        <time>2015-06-07T08:39:35Z</time>
      </trkpt>
      <trkpt lat="47.74207" lon="7.03418">
        <ele>399</ele>
        <time>2015-06-07T08:39:40Z</time>
      </trkpt>
      <trkpt lat="47.74213" lon="7.0342">
        <ele>399</ele>
        <time>2015-06-07T08:39:47Z</time>
      </trkpt>
      <trkpt lat="47.74216" lon="7.03426">
        <ele>399</ele>
        <time>2015-06-07T08:39:51Z</time>
      </trkpt>
      <trkpt lat="47.7422" lon="7.03429">
        <ele>398.1</ele>
        <time>2015-06-07T08:39:54Z</time>
      </trkpt>
      <trkpt lat="47.74225" lon="7.03431">
        <ele>398</ele>
        <time>2015-06-07T08:39:58Z</time>
      </trkpt>
      <trkpt lat="47.74227" lon="7.03439">
        <ele>397</ele>
        <time>2015-06-07T08:40:04Z</time>
      </trkpt>
      <trkpt lat="47.74224" lon="7.03444">
        <ele>396.1</ele>
        <time>2015-06-07T08:40:19Z</time>
      </trkpt>
      <trkpt lat="47.74221" lon="7.03449">
        <ele>396</ele>
        <time>2015-06-07T08:40:23Z</time>
      </trkpt>
      <trkpt lat="47.74219" lon="7.03442">
        <ele>396</ele>
        <time>2015-06-07T08:40:28Z</time>
      </trkpt>
      <trkpt lat="47.74221" lon="7.03436">
        <ele>395.1</ele>
        <time>2015-06-07T08:40:32Z</time>
      </trkpt>
      <trkpt lat="47.74218" lon="7.03443">
        <ele>395</ele>
        <time>2015-06-07T08:40:39Z</time>
      </trkpt>
      <trkpt lat="47.74217" lon="7.03451">
        <ele>393.5</ele>
        <time>2015-06-07T08:40:42Z</time>
      </trkpt>
      <trkpt lat="47.74217" lon="7.03459">
        <ele>393.5</ele>
        <time>2015-06-07T08:40:45Z</time>
      </trkpt>
      <trkpt lat="47.74222" lon="7.0347">
        <ele>391</ele>
        <time>2015-06-07T08:40:52Z</time>
      </trkpt>
      <trkpt lat="47.74219" lon="7.03476">
        <ele>390</ele>
        <time>2015-06-07T08:40:59Z</time>
      </trkpt>
      <trkpt lat="47.74216" lon="7.03484">
        <ele>390</ele>
        <time>2015-06-07T08:41:04Z</time>
      </trkpt>
      <trkpt lat="47.7421" lon="7.03503">
        <ele>388.5</ele>
        <time>2015-06-07T08:41:15Z</time>
      </trkpt>
      <trkpt lat="47.74208" lon="7.03511">
        <ele>387.3</ele>
        <time>2015-06-07T08:41:19Z</time>
      </trkpt>
      <trkpt lat="47.74207" lon="7.0352">
        <ele>387.3</ele>
        <time>2015-06-07T08:41:23Z</time>
      </trkpt>
      <trkpt lat="47.74209" lon="7.03534">
        <ele>387</ele>
        <time>2015-06-07T08:41:28Z</time>
      </trkpt>
      <trkpt lat="47.74207" lon="7.03541">
        <ele>387</ele>
        <time>2015-06-07T08:41:33Z</time>
      </trkpt>
      <trkpt lat="47.74204" lon="7.03548">
        <ele>387</ele>
        <time>2015-06-07T08:41:37Z</time>
      </trkpt>
      <trkpt lat="47.74201" lon="7.03563">
        <ele>386</ele>
        <time>2015-06-07T08:41:47Z</time>
      </trkpt>
      <trkpt lat="47.74198" lon="7.03568">
        <ele>386</ele>
        <time>2015-06-07T08:41:52Z</time>
      </trkpt>
      <trkpt lat="47.74197" lon="7.03575">
        <ele>386</ele>
        <time>2015-06-07T08:41:56Z</time>
      </trkpt>
      <trkpt lat="47.74195" lon="7.03583">
        <ele>386</ele>
        <time>2015-06-07T08:42:01Z</time>
      </trkpt>
      <trkpt lat="47.74189" lon="7.03595">
        <ele>386</ele>
        <time>2015-06-07T08:42:09Z</time>
      </trkpt>
      <trkpt lat="47.74185" lon="7.03607">
        <ele>386</ele>
        <time>2015-06-07T08:42:16Z</time>
      </trkpt>
      <trkpt lat="47.74183" lon="7.03614">
        <ele>386</ele>
        <time>2015-06-07T08:42:21Z</time>
      </trkpt>
      <trkpt lat="47.74182" lon="7.03622">
        <ele>385</ele>
        <time>2015-06-07T08:42:28Z</time>
      </trkpt>
      <trkpt lat="47.74177" lon="7.03629">
        <ele>385</ele>
        <time>2015-06-07T08:42:31Z</time>
      </trkpt>
      <trkpt lat="47.74173" lon="7.03641">
        <ele>384</ele>
        <time>2015-06-07T08:42:45Z</time>
      </trkpt>
      <trkpt lat="47.74173" lon="7.03648">
        <ele>383.1</ele>
        <time>2015-06-07T08:42:49Z</time>
      </trkpt>
      <trkpt lat="47.74165" lon="7.03666">
        <ele>383</ele>
        <time>2015-06-07T08:43:01Z</time>
      </trkpt>
      <trkpt lat="47.74158" lon="7.03674">
        <ele>383</ele>
        <time>2015-06-07T08:43:11Z</time>
      </trkpt>
      <trkpt lat="47.74146" lon="7.03686">
        <ele>383</ele>
        <time>2015-06-07T08:43:20Z</time>
      </trkpt>
      <trkpt lat="47.74138" lon="7.03693">
        <ele>383</ele>
        <time>2015-06-07T08:43:23Z</time>
      </trkpt>
      <trkpt lat="47.74134" lon="7.03704">
        <ele>383</ele>
        <time>2015-06-07T08:43:34Z</time>
      </trkpt>
      <trkpt lat="47.74131" lon="7.0371">
        <ele>383</ele>
        <time>2015-06-07T08:43:37Z</time>
      </trkpt>
      <trkpt lat="47.74127" lon="7.03716">
        <ele>385.9</ele>
        <time>2015-06-07T08:43:45Z</time>
      </trkpt>
      <trkpt lat="47.74123" lon="7.03722">
        <ele>386</ele>
        <time>2015-06-07T08:43:50Z</time>
      </trkpt>
      <trkpt lat="47.74122" lon="7.03728">
        <ele>386</ele>
        <time>2015-06-07T08:43:57Z</time>
      </trkpt>
      <trkpt lat="47.74122" lon="7.03743">
        <ele>386</ele>
        <time>2015-06-07T08:44:04Z</time>
      </trkpt>
      <trkpt lat="47.74119" lon="7.03749">
        <ele>386</ele>
        <time>2015-06-07T08:44:08Z</time>
      </trkpt>
      <trkpt lat="47.74111" lon="7.03757">
        <ele>385.1</ele>
        <time>2015-06-07T08:44:15Z</time>
      </trkpt>
      <trkpt lat="47.74106" lon="7.0376">
        <ele>385</ele>
        <time>2015-06-07T08:44:20Z</time>
      </trkpt>
      <trkpt lat="47.74101" lon="7.03765">
        <ele>383.5</ele>
        <time>2015-06-07T08:44:28Z</time>
      </trkpt>
      <trkpt lat="47.74096" lon="7.03766">
        <ele>381.3</ele>
        <time>2015-06-07T08:44:36Z</time>
      </trkpt>
      <trkpt lat="47.7409" lon="7.03772">
        <ele>381</ele>
        <time>2015-06-07T08:44:41Z</time>
      </trkpt>
      <trkpt lat="47.74087" lon="7.03777">
        <ele>381</ele>
        <time>2015-06-07T08:44:45Z</time>
      </trkpt>
      <trkpt lat="47.74083" lon="7.0378">
        <ele>381</ele>
        <time>2015-06-07T08:44:51Z</time>
      </trkpt>
      <trkpt lat="47.74078" lon="7.03785">
        <ele>381</ele>
        <time>2015-06-07T08:44:56Z</time>
      </trkpt>
      <trkpt lat="47.74074" lon="7.0379">
        <ele>381</ele>
        <time>2015-06-07T08:44:59Z</time>
      </trkpt>
      <trkpt lat="47.74063" lon="7.03798">
        <ele>381</ele>
        <time>2015-06-07T08:45:04Z</time>
      </trkpt>
      <trkpt lat="47.74059" lon="7.038">
        <ele>381</ele>
        <time>2015-06-07T08:45:11Z</time>
      </trkpt>
      <trkpt lat="47.74053" lon="7.03801">
        <ele>380</ele>
        <time>2015-06-07T08:45:18Z</time>
      </trkpt>
      <trkpt lat="47.74053" lon="7.03792">
        <ele>380</ele>
        <time>2015-06-07T08:45:23Z</time>
      </trkpt>
      <trkpt lat="47.74051" lon="7.03783">
        <ele>379.1</ele>
        <time>2015-06-07T08:45:29Z</time>
      </trkpt>
      <trkpt lat="47.74049" lon="7.03777">
        <ele>379</ele>
        <time>2015-06-07T08:45:34Z</time>
      </trkpt>
      <trkpt lat="47.74042" lon="7.03767">
        <ele>379</ele>
        <time>2015-06-07T08:45:40Z</time>
      </trkpt>
      <trkpt lat="47.74038" lon="7.03761">
        <ele>378</ele>
        <time>2015-06-07T08:45:44Z</time>
      </trkpt>
      <trkpt lat="47.74032" lon="7.03749">
        <ele>377</ele>
        <time>2015-06-07T08:45:52Z</time>
      </trkpt>
      <trkpt lat="47.74028" lon="7.03737">
        <ele>377</ele>
        <time>2015-06-07T08:46:00Z</time>
      </trkpt>
      <trkpt lat="47.74025" lon="7.03729">
        <ele>377</ele>
        <time>2015-06-07T08:46:05Z</time>
      </trkpt>
      <trkpt lat="47.74021" lon="7.03724">
        <ele>377</ele>
        <time>2015-06-07T08:46:09Z</time>
      </trkpt>
      <trkpt lat="47.74018" lon="7.03718">
        <ele>377</ele>
        <time>2015-06-07T08:46:13Z</time>
      </trkpt>
      <trkpt lat="47.74015" lon="7.03712">
        <ele>377</ele>
        <time>2015-06-07T08:46:17Z</time>
      </trkpt>
      <trkpt lat="47.7401" lon="7.03701">
        <ele>378</ele>
        <time>2015-06-07T08:46:28Z</time>
      </trkpt>
      <trkpt lat="47.74007" lon="7.03695">
        <ele>379.7</ele>
        <time>2015-06-07T08:46:34Z</time>
      </trkpt>
      <trkpt lat="47.74003" lon="7.0369">
        <ele>380.9</ele>
        <time>2015-06-07T08:46:39Z</time>
      </trkpt>
      <trkpt lat="47.73999" lon="7.03685">
        <ele>380.9</ele>
        <time>2015-06-07T08:46:43Z</time>
      </trkpt>
      <trkpt lat="47.73997" lon="7.0368">
        <ele>384</ele>
        <time>2015-06-07T08:46:54Z</time>
      </trkpt>
      <trkpt lat="47.73994" lon="7.03674">
        <ele>386</ele>
        <time>2015-06-07T08:47:02Z</time>
      </trkpt>
      <trkpt lat="47.73995" lon="7.03682">
        <ele>387</ele>
        <time>2015-06-07T08:47:09Z</time>
      </trkpt>
      <trkpt lat="47.73991" lon="7.03676">
        <ele>387</ele>
        <time>2015-06-07T08:47:22Z</time>
      </trkpt>
      <trkpt lat="47.73989" lon="7.03667">
        <ele>387</ele>
        <time>2015-06-07T08:47:35Z</time>
      </trkpt>
      <trkpt lat="47.73988" lon="7.03674">
        <ele>385.1</ele>
        <time>2015-06-07T08:47:42Z</time>
      </trkpt>
      <trkpt lat="47.73981" lon="7.03682">
        <ele>384</ele>
        <time>2015-06-07T08:47:48Z</time>
      </trkpt>
      <trkpt lat="47.73978" lon="7.03696">
        <ele>384</ele>
        <time>2015-06-07T08:47:55Z</time>
      </trkpt>
      <trkpt lat="47.73973" lon="7.03701">
        <ele>383.2</ele>
        <time>2015-06-07T08:48:00Z</time>
      </trkpt>
      <trkpt lat="47.7397" lon="7.03706">
        <ele>383</ele>
        <time>2015-06-07T08:48:03Z</time>
      </trkpt>
      <trkpt lat="47.73966" lon="7.03712">
        <ele>383</ele>
        <time>2015-06-07T08:48:08Z</time>
      </trkpt>
      <trkpt lat="47.73961" lon="7.03716">
        <ele>382</ele>
        <time>2015-06-07T08:48:12Z</time>
      </trkpt>
      <trkpt lat="47.73956" lon="7.03728">
        <ele>382</ele>
        <time>2015-06-07T08:48:20Z</time>
      </trkpt>
      <trkpt lat="47.73957" lon="7.03737">
        <ele>382</ele>
        <time>2015-06-07T08:48:24Z</time>
      </trkpt>
      <trkpt lat="47.73953" lon="7.03742">
        <ele>382</ele>
        <time>2015-06-07T08:48:28Z</time>
      </trkpt>
      <trkpt lat="47.73944" lon="7.0375">
        <ele>382</ele>
        <time>2015-06-07T08:48:36Z</time>
      </trkpt>
      <trkpt lat="47.7394" lon="7.03753">
        <ele>382</ele>
        <time>2015-06-07T08:48:40Z</time>
      </trkpt>
      <trkpt lat="47.73938" lon="7.03761">
        <ele>382.9</ele>
        <time>2015-06-07T08:48:45Z</time>
      </trkpt>
      <trkpt lat="47.73936" lon="7.03768">
        <ele>383</ele>
        <time>2015-06-07T08:48:50Z</time>
      </trkpt>
      <trkpt lat="47.73938" lon="7.03773">
        <ele>386</ele>
        <time>2015-06-07T08:49:05Z</time>
      </trkpt>
      <trkpt lat="47.73935" lon="7.03778">
        <ele>386</ele>
        <time>2015-06-07T08:49:11Z</time>
      </trkpt>
      <trkpt lat="47.73927" lon="7.03784">
        <ele>387.9</ele>
        <time>2015-06-07T08:49:22Z</time>
      </trkpt>
      <trkpt lat="47.73922" lon="7.03782">
        <ele>388.9</ele>
        <time>2015-06-07T08:49:25Z</time>
      </trkpt>
      <trkpt lat="47.73917" lon="7.03784">
        <ele>389</ele>
        <time>2015-06-07T08:49:29Z</time>
      </trkpt>
      <trkpt lat="47.73914" lon="7.0379">
        <ele>390.4</ele>
        <time>2015-06-07T08:49:34Z</time>
      </trkpt>
      <trkpt lat="47.73913" lon="7.03798">
        <ele>392</ele>
        <time>2015-06-07T08:49:38Z</time>
      </trkpt>
      <trkpt lat="47.7391" lon="7.03804">
        <ele>392</ele>
        <time>2015-06-07T08:49:41Z</time>
      </trkpt>
      <trkpt lat="47.73906" lon="7.03809">
        <ele>393</ele>
        <time>2015-06-07T08:49:44Z</time>
      </trkpt>
      <trkpt lat="47.739" lon="7.03822">
        <ele>393</ele>
        <time>2015-06-07T08:49:52Z</time>
      </trkpt>
      <trkpt lat="47.73896" lon="7.03834">
        <ele>393</ele>
        <time>2015-06-07T08:49:59Z</time>
      </trkpt>
      <trkpt lat="47.739" lon="7.03837">
        <ele>393</ele>
        <time>2015-06-07T08:50:07Z</time>
      </trkpt>
      <trkpt lat="47.73904" lon="7.03842">
        <ele>393</ele>
        <time>2015-06-07T08:50:12Z</time>
      </trkpt>
      <trkpt lat="47.73901" lon="7.03849">
        <ele>392.5</ele>
        <time>2015-06-07T08:50:18Z</time>
      </trkpt>
      <trkpt lat="47.73894" lon="7.03859">
        <ele>392</ele>
        <time>2015-06-07T08:50:25Z</time>
      </trkpt>
      <trkpt lat="47.7389" lon="7.03865">
        <ele>391</ele>
        <time>2015-06-07T08:50:29Z</time>
      </trkpt>
      <trkpt lat="47.73888" lon="7.03872">
        <ele>391</ele>
        <time>2015-06-07T08:50:33Z</time>
      </trkpt>
      <trkpt lat="47.73885" lon="7.03877">
        <ele>391</ele>
        <time>2015-06-07T08:50:42Z</time>
      </trkpt>
      <trkpt lat="47.73882" lon="7.03884">
        <ele>391</ele>
        <time>2015-06-07T08:50:48Z</time>
      </trkpt>
      <trkpt lat="47.73878" lon="7.03892">
        <ele>391</ele>
        <time>2015-06-07T08:50:53Z</time>
      </trkpt>
      <trkpt lat="47.73874" lon="7.03899">
        <ele>391</ele>
        <time>2015-06-07T08:50:58Z</time>
      </trkpt>
      <trkpt lat="47.73871" lon="7.03905">
        <ele>391</ele>
        <time>2015-06-07T08:51:04Z</time>
      </trkpt>
      <trkpt lat="47.73867" lon="7.03924">
        <ele>391</ele>
        <time>2015-06-07T08:51:16Z</time>
      </trkpt>
      <trkpt lat="47.73862" lon="7.03938">
        <ele>391.9</ele>
        <time>2015-06-07T08:51:25Z</time>
      </trkpt>
      <trkpt lat="47.73859" lon="7.03952">
        <ele>392</ele>
        <time>2015-06-07T08:51:32Z</time>
      </trkpt>
      <trkpt lat="47.73855" lon="7.03959">
        <ele>392</ele>
        <time>2015-06-07T08:51:38Z</time>
      </trkpt>
      <trkpt lat="47.73854" lon="7.03966">
        <ele>391</ele>
        <time>2015-06-07T08:51:42Z</time>
      </trkpt>
      <trkpt lat="47.73853" lon="7.03972">
        <ele>391</ele>
        <time>2015-06-07T08:51:45Z</time>
      </trkpt>
      <trkpt lat="47.7385" lon="7.03978">
        <ele>391</ele>
        <time>2015-06-07T08:51:49Z</time>
      </trkpt>
      <trkpt lat="47.73841" lon="7.03993">
        <ele>392</ele>
        <time>2015-06-07T08:52:05Z</time>
      </trkpt>
      <trkpt lat="47.73837" lon="7.03999">
        <ele>391.1</ele>
        <time>2015-06-07T08:52:09Z</time>
      </trkpt>
      <trkpt lat="47.73833" lon="7.04003">
        <ele>391</ele>
        <time>2015-06-07T08:52:12Z</time>
      </trkpt>
      <trkpt lat="47.7383" lon="7.04008">
        <ele>390.3</ele>
        <time>2015-06-07T08:52:16Z</time>
      </trkpt>
      <trkpt lat="47.73824" lon="7.0402">
        <ele>390</ele>
        <time>2015-06-07T08:52:27Z</time>
      </trkpt>
      <trkpt lat="47.73818" lon="7.04035">
        <ele>390</ele>
        <time>2015-06-07T08:52:32Z</time>
      </trkpt>
      <trkpt lat="47.7382" lon="7.04041">
        <ele>386.2</ele>
        <time>2015-06-07T08:52:58Z</time>
      </trkpt>
      <trkpt lat="47.73825" lon="7.04047">
        <ele>386</ele>
        <time>2015-06-07T08:53:02Z</time>
      </trkpt>
      <trkpt lat="47.73833" lon="7.04058">
        <ele>383.1</ele>
        <time>2015-06-07T08:53:09Z</time>
      </trkpt>
      <trkpt lat="47.73841" lon="7.04067">
        <ele>383</ele>
        <time>2015-06-07T08:53:20Z</time>
      </trkpt>
      <trkpt lat="47.73845" lon="7.04069">
        <ele>383</ele>
        <time>2015-06-07T08:53:26Z</time>
      </trkpt>
      <trkpt lat="47.7385" lon="7.04082">
        <ele>382</ele>
        <time>2015-06-07T08:53:36Z</time>
      </trkpt>
      <trkpt lat="47.7385" lon="7.04089">
        <ele>382</ele>
        <time>2015-06-07T08:53:40Z</time>
      </trkpt>
      <trkpt lat="47.73847" lon="7.04096">
        <ele>382.5</ele>
        <time>2015-06-07T08:53:45Z</time>
      </trkpt>
      <trkpt lat="47.73844" lon="7.04102">
        <ele>382.9</ele>
        <time>2015-06-07T08:53:50Z</time>
      </trkpt>
      <trkpt lat="47.73841" lon="7.04108">
        <ele>383</ele>
        <time>2015-06-07T08:53:53Z</time>
      </trkpt>
      <trkpt lat="47.73835" lon="7.04111">
        <ele>383</ele>
        <time>2015-06-07T08:53:56Z</time>
      </trkpt>
      <trkpt lat="47.73831" lon="7.04113">
        <ele>383</ele>
        <time>2015-06-07T08:53:59Z</time>
      </trkpt>
      <trkpt lat="47.73827" lon="7.04119">
        <ele>383</ele>
        <time>2015-06-07T08:54:03Z</time>
      </trkpt>
      <trkpt lat="47.73823" lon="7.04127">
        <ele>384</ele>
        <time>2015-06-07T08:54:11Z</time>
      </trkpt>
      <trkpt lat="47.73818" lon="7.04133">
        <ele>384</ele>
        <time>2015-06-07T08:54:16Z</time>
      </trkpt>
      <trkpt lat="47.73811" lon="7.04142">
        <ele>384</ele>
        <time>2015-06-07T08:54:22Z</time>
      </trkpt>
      <trkpt lat="47.73812" lon="7.04153">
        <ele>382.6</ele>
        <time>2015-06-07T08:54:36Z</time>
      </trkpt>
      <trkpt lat="47.73809" lon="7.04159">
        <ele>382.3</ele>
        <time>2015-06-07T08:54:41Z</time>
      </trkpt>
      <trkpt lat="47.73804" lon="7.04161">
        <ele>380.1</ele>
        <time>2015-06-07T08:54:46Z</time>
      </trkpt>
      <trkpt lat="47.73801" lon="7.04169">
        <ele>378.6</ele>
        <time>2015-06-07T08:54:50Z</time>
      </trkpt>
      <trkpt lat="47.73797" lon="7.04172">
        <ele>378</ele>
        <time>2015-06-07T08:54:56Z</time>
      </trkpt>
      <trkpt lat="47.73797" lon="7.04164">
        <ele>376.1</ele>
        <time>2015-06-07T08:55:06Z</time>
      </trkpt>
      <trkpt lat="47.73799" lon="7.04171">
        <ele>376</ele>
        <time>2015-06-07T08:56:00Z</time>
      </trkpt>
      <trkpt lat="47.73797" lon="7.04179">
        <ele>376</ele>
        <time>2015-06-07T08:56:06Z</time>
      </trkpt>
      <trkpt lat="47.73794" lon="7.04185">
        <ele>374.1</ele>
        <time>2015-06-07T08:56:09Z</time>
      </trkpt>
      <trkpt lat="47.73793" lon="7.04194">
        <ele>374.1</ele>
        <time>2015-06-07T08:56:13Z</time>
      </trkpt>
      <trkpt lat="47.73793" lon="7.04202">
        <ele>373</ele>
        <time>2015-06-07T08:56:17Z</time>
      </trkpt>
      <trkpt lat="47.73789" lon="7.04209">
        <ele>372</ele>
        <time>2015-06-07T08:56:23Z</time>
      </trkpt>
      <trkpt lat="47.73784" lon="7.04209">
        <ele>372</ele>
        <time>2015-06-07T08:56:34Z</time>
      </trkpt>
      <trkpt lat="47.73782" lon="7.04217">
        <ele>372</ele>
        <time>2015-06-07T08:56:39Z</time>
      </trkpt>
      <trkpt lat="47.73781" lon="7.04225">
        <ele>372</ele>
        <time>2015-06-07T08:56:43Z</time>
      </trkpt>
      <trkpt lat="47.73778" lon="7.04231">
        <ele>372</ele>
        <time>2015-06-07T08:56:49Z</time>
      </trkpt>
      <trkpt lat="47.73773" lon="7.04237">
        <ele>372</ele>
        <time>2015-06-07T08:56:53Z</time>
      </trkpt>
      <trkpt lat="47.73769" lon="7.04241">
        <ele>372</ele>
        <time>2015-06-07T08:56:57Z</time>
      </trkpt>
      <trkpt lat="47.73774" lon="7.04244">
        <ele>372.8</ele>
        <time>2015-06-07T08:57:03Z</time>
      </trkpt>
      <trkpt lat="47.73773" lon="7.04252">
        <ele>372.8</ele>
        <time>2015-06-07T08:57:06Z</time>
      </trkpt>
      <trkpt lat="47.73768" lon="7.04265">
        <ele>373</ele>
        <time>2015-06-07T08:57:11Z</time>
      </trkpt>
      <trkpt lat="47.73767" lon="7.04272">
        <ele>373</ele>
        <time>2015-06-07T08:57:13Z</time>
      </trkpt>
      <trkpt lat="47.73766" lon="7.04281">
        <ele>373</ele>
        <time>2015-06-07T08:57:16Z</time>
      </trkpt>
      <trkpt lat="47.73764" lon="7.04288">
        <ele>373</ele>
        <time>2015-06-07T08:57:21Z</time>
      </trkpt>
      <trkpt lat="47.73757" lon="7.04291">
        <ele>373</ele>
        <time>2015-06-07T08:57:27Z</time>
      </trkpt>
      <trkpt lat="47.73754" lon="7.04296">
        <ele>373</ele>
        <time>2015-06-07T08:57:32Z</time>
      </trkpt>
      <trkpt lat="47.73751" lon="7.0431">
        <ele>373</ele>
        <time>2015-06-07T08:57:44Z</time>
      </trkpt>
      <trkpt lat="47.73749" lon="7.04318">
        <ele>373</ele>
        <time>2015-06-07T08:57:48Z</time>
      </trkpt>
      <trkpt lat="47.73748" lon="7.04332">
        <ele>373</ele>
        <time>2015-06-07T08:57:56Z</time>
      </trkpt>
      <trkpt lat="47.73743" lon="7.04332">
        <ele>373</ele>
        <time>2015-06-07T08:58:00Z</time>
      </trkpt>
      <trkpt lat="47.73738" lon="7.0433">
        <ele>374.4</ele>
        <time>2015-06-07T08:58:04Z</time>
      </trkpt>
      <trkpt lat="47.73736" lon="7.04323">
        <ele>375</ele>
        <time>2015-06-07T08:58:09Z</time>
      </trkpt>
      <trkpt lat="47.73731" lon="7.04315">
        <ele>375</ele>
        <time>2015-06-07T08:58:15Z</time>
      </trkpt>
      <trkpt lat="47.73728" lon="7.0431">
        <ele>375</ele>
        <time>2015-06-07T08:58:19Z</time>
      </trkpt>
      <trkpt lat="47.73722" lon="7.04308">
        <ele>375</ele>
        <time>2015-06-07T08:58:22Z</time>
      </trkpt>
      <trkpt lat="47.73709" lon="7.04307">
        <ele>375</ele>
        <time>2015-06-07T08:58:27Z</time>
      </trkpt>
      <trkpt lat="47.73705" lon="7.04304">
        <ele>375</ele>
        <time>2015-06-07T08:58:30Z</time>
      </trkpt>
      <trkpt lat="47.73704" lon="7.04296">
        <ele>375</ele>
        <time>2015-06-07T08:58:34Z</time>
      </trkpt>
      <trkpt lat="47.73706" lon="7.04289">
        <ele>375</ele>
        <time>2015-06-07T08:58:40Z</time>
      </trkpt>
      <trkpt lat="47.73702" lon="7.04285">
        <ele>375</ele>
        <time>2015-06-07T08:58:47Z</time>
      </trkpt>
      <trkpt lat="47.73698" lon="7.0428">
        <ele>375</ele>
        <time>2015-06-07T08:58:51Z</time>
      </trkpt>
      <trkpt lat="47.73692" lon="7.0427">
        <ele>374.1</ele>
        <time>2015-06-07T08:59:00Z</time>
      </trkpt>
      <trkpt lat="47.73688" lon="7.04266">
        <ele>374</ele>
        <time>2015-06-07T08:59:03Z</time>
      </trkpt>
      <trkpt lat="47.73683" lon="7.04262">
        <ele>374</ele>
        <time>2015-06-07T08:59:06Z</time>
      </trkpt>
      <trkpt lat="47.73671" lon="7.04252">
        <ele>374</ele>
        <time>2015-06-07T08:59:19Z</time>
      </trkpt>
      <trkpt lat="47.73666" lon="7.04247">
        <ele>374</ele>
        <time>2015-06-07T08:59:23Z</time>
      </trkpt>
      <trkpt lat="47.73662" lon="7.04243">
        <ele>374</ele>
        <time>2015-06-07T08:59:28Z</time>
      </trkpt>
      <trkpt lat="47.73658" lon="7.04239">
        <ele>374</ele>
        <time>2015-06-07T08:59:35Z</time>
      </trkpt>
      <trkpt lat="47.73654" lon="7.04232">
        <ele>374</ele>
        <time>2015-06-07T08:59:38Z</time>
      </trkpt>
      <trkpt lat="47.73651" lon="7.04228">
        <ele>374</ele>
        <time>2015-06-07T08:59:40Z</time>
      </trkpt>
      <trkpt lat="47.73645" lon="7.04211">
        <ele>374</ele>
        <time>2015-06-07T08:59:44Z</time>
      </trkpt>
      <trkpt lat="47.73645" lon="7.042">
        <ele>374</ele>
        <time>2015-06-07T08:59:48Z</time>
      </trkpt>
      <trkpt lat="47.73643" lon="7.04194">
        <ele>374</ele>
        <time>2015-06-07T08:59:53Z</time>
      </trkpt>
      <trkpt lat="47.73632" lon="7.04183">
        <ele>374</ele>
        <time>2015-06-07T09:00:11Z</time>
      </trkpt>
      <trkpt lat="47.73623" lon="7.04176">
        <ele>375</ele>
        <time>2015-06-07T09:00:16Z</time>
      </trkpt>
      <trkpt lat="47.73614" lon="7.04166">
        <ele>375</ele>
        <time>2015-06-07T09:00:25Z</time>
      </trkpt>
      <trkpt lat="47.7361" lon="7.04154">
        <ele>376</ele>
        <time>2015-06-07T09:00:31Z</time>
      </trkpt>
      <trkpt lat="47.73605" lon="7.04152">
        <ele>376</ele>
        <time>2015-06-07T09:00:35Z</time>
      </trkpt>
      <trkpt lat="47.73601" lon="7.04149">
        <ele>376</ele>
        <time>2015-06-07T09:00:38Z</time>
      </trkpt>
      <trkpt lat="47.73592" lon="7.04136">
        <ele>376</ele>
        <time>2015-06-07T09:00:48Z</time>
      </trkpt>
      <trkpt lat="47.73588" lon="7.0413">
        <ele>376</ele>
        <time>2015-06-07T09:00:52Z</time>
      </trkpt>
      <trkpt lat="47.73581" lon="7.04127">
        <ele>376</ele>
        <time>2015-06-07T09:00:57Z</time>
      </trkpt>
      <trkpt lat="47.73575" lon="7.04126">
        <ele>376</ele>
        <time>2015-06-07T09:01:01Z</time>
      </trkpt>
      <trkpt lat="47.73571" lon="7.04128">
        <ele>374.5</ele>
        <time>2015-06-07T09:01:06Z</time>
      </trkpt>
      <trkpt lat="47.73566" lon="7.04114">
        <ele>372.5</ele>
        <time>2015-06-07T09:01:15Z</time>
      </trkpt>
      <trkpt lat="47.73563" lon="7.04108">
        <ele>371.1</ele>
        <time>2015-06-07T09:01:18Z</time>
      </trkpt>
      <trkpt lat="47.73559" lon="7.04103">
        <ele>371.1</ele>
        <time>2015-06-07T09:01:21Z</time>
      </trkpt>
      <trkpt lat="47.73555" lon="7.04098">
        <ele>370</ele>
        <time>2015-06-07T09:01:25Z</time>
      </trkpt>
      <trkpt lat="47.7355" lon="7.04098">
        <ele>370</ele>
        <time>2015-06-07T09:01:31Z</time>
      </trkpt>
      <trkpt lat="47.73536" lon="7.04107">
        <ele>370</ele>
        <time>2015-06-07T09:01:39Z</time>
      </trkpt>
      <trkpt lat="47.73526" lon="7.04117">
        <ele>370</ele>
        <time>2015-06-07T09:01:47Z</time>
      </trkpt>
      <trkpt lat="47.73522" lon="7.04122">
        <ele>370</ele>
        <time>2015-06-07T09:01:52Z</time>
      </trkpt>
      <trkpt lat="47.73517" lon="7.04125">
        <ele>370</ele>
        <time>2015-06-07T09:01:55Z</time>
      </trkpt>
      <trkpt lat="47.73504" lon="7.04132">
        <ele>371</ele>
        <time>2015-06-07T09:02:08Z</time>
      </trkpt>
      <trkpt lat="47.73499" lon="7.04134">
        <ele>370</ele>
        <time>2015-06-07T09:02:11Z</time>
      </trkpt>
      <trkpt lat="47.73495" lon="7.04139">
        <ele>370</ele>
        <time>2015-06-07T09:02:16Z</time>
      </trkpt>
      <trkpt lat="47.73491" lon="7.0414">
        <ele>370</ele>
        <time>2015-06-07T09:02:19Z</time>
      </trkpt>
      <trkpt lat="47.73484" lon="7.04142">
        <ele>370</ele>
        <time>2015-06-07T09:02:24Z</time>
      </trkpt>
      <trkpt lat="47.73479" lon="7.0414">
        <ele>370</ele>
        <time>2015-06-07T09:02:28Z</time>
      </trkpt>
      <trkpt lat="47.73474" lon="7.04141">
        <ele>370</ele>
        <time>2015-06-07T09:02:33Z</time>
      </trkpt>
      <trkpt lat="47.73469" lon="7.04143">
        <ele>370</ele>
        <time>2015-06-07T09:02:36Z</time>
      </trkpt>
      <trkpt lat="47.73462" lon="7.04146">
        <ele>369.5</ele>
        <time>2015-06-07T09:02:42Z</time>
      </trkpt>
      <trkpt lat="47.73457" lon="7.04145">
        <ele>369</ele>
        <time>2015-06-07T09:02:47Z</time>
      </trkpt>
      <trkpt lat="47.73448" lon="7.0414">
        <ele>369</ele>
        <time>2015-06-07T09:02:57Z</time>
      </trkpt>
      <trkpt lat="47.73443" lon="7.04142">
        <ele>369</ele>
        <time>2015-06-07T09:03:01Z</time>
      </trkpt>
      <trkpt lat="47.73435" lon="7.04136">
        <ele>369</ele>
        <time>2015-06-07T09:03:12Z</time>
      </trkpt>
      <trkpt lat="47.73433" lon="7.04129">
        <ele>369</ele>
        <time>2015-06-07T09:03:16Z</time>
      </trkpt>
      <trkpt lat="47.73429" lon="7.04123">
        <ele>369</ele>
        <time>2015-06-07T09:03:21Z</time>
      </trkpt>
      <trkpt lat="47.73422" lon="7.04118">
        <ele>370.9</ele>
        <time>2015-06-07T09:03:27Z</time>
      </trkpt>
      <trkpt lat="47.73419" lon="7.04125">
        <ele>374.3</ele>
        <time>2015-06-07T09:03:36Z</time>
      </trkpt>
      <trkpt lat="47.73417" lon="7.04132">
        <ele>376.8</ele>
        <time>2015-06-07T09:03:40Z</time>
      </trkpt>
      <trkpt lat="47.73413" lon="7.04136">
        <ele>378.7</ele>
        <time>2015-06-07T09:03:45Z</time>
      </trkpt>
      <trkpt lat="47.73409" lon="7.04141">
        <ele>380</ele>
        <time>2015-06-07T09:03:51Z</time>
      </trkpt>
      <trkpt lat="47.73405" lon="7.04146">
        <ele>383.6</ele>
        <time>2015-06-07T09:03:58Z</time>
      </trkpt>
      <trkpt lat="47.73402" lon="7.0416">
        <ele>387</ele>
        <time>2015-06-07T09:04:07Z</time>
      </trkpt>
      <trkpt lat="47.73399" lon="7.04166">
        <ele>387</ele>
        <time>2015-06-07T09:04:11Z</time>
      </trkpt>
      <trkpt lat="47.73396" lon="7.04174">
        <ele>387</ele>
        <time>2015-06-07T09:04:14Z</time>
      </trkpt>
      <trkpt lat="47.73394" lon="7.0418">
        <ele>387</ele>
        <time>2015-06-07T09:04:17Z</time>
      </trkpt>
      <trkpt lat="47.73389" lon="7.04184">
        <ele>387</ele>
        <time>2015-06-07T09:04:23Z</time>
      </trkpt>
      <trkpt lat="47.73388" lon="7.04191">
        <ele>387</ele>
        <time>2015-06-07T09:04:26Z</time>
      </trkpt>
      <trkpt lat="47.73385" lon="7.04196">
        <ele>387</ele>
        <time>2015-06-07T09:04:29Z</time>
      </trkpt>
      <trkpt lat="47.7338" lon="7.04201">
        <ele>384.9</ele>
        <time>2015-06-07T09:04:35Z</time>
      </trkpt>
      <trkpt lat="47.73378" lon="7.04209">
        <ele>383</ele>
        <time>2015-06-07T09:04:42Z</time>
      </trkpt>
      <trkpt lat="47.73375" lon="7.04215">
        <ele>382.3</ele>
        <time>2015-06-07T09:04:48Z</time>
      </trkpt>
      <trkpt lat="47.73362" lon="7.04229">
        <ele>381</ele>
        <time>2015-06-07T09:05:03Z</time>
      </trkpt>
      <trkpt lat="47.73358" lon="7.04234">
        <ele>380.1</ele>
        <time>2015-06-07T09:05:06Z</time>
      </trkpt>
      <trkpt lat="47.73353" lon="7.04239">
        <ele>380.1</ele>
        <time>2015-06-07T09:05:10Z</time>
      </trkpt>
      <trkpt lat="47.73345" lon="7.04246">
        <ele>380</ele>
        <time>2015-06-07T09:05:19Z</time>
      </trkpt>
      <trkpt lat="47.73341" lon="7.0425">
        <ele>379</ele>
        <time>2015-06-07T09:05:23Z</time>
      </trkpt>
      <trkpt lat="47.73332" lon="7.04249">
        <ele>379</ele>
        <time>2015-06-07T09:05:32Z</time>
      </trkpt>
      <trkpt lat="47.73328" lon="7.04251">
        <ele>379</ele>
        <time>2015-06-07T09:05:37Z</time>
      </trkpt>
      <trkpt lat="47.73323" lon="7.04251">
        <ele>379</ele>
        <time>2015-06-07T09:05:43Z</time>
      </trkpt>
      <trkpt lat="47.73318" lon="7.04251">
        <ele>378.1</ele>
        <time>2015-06-07T09:05:47Z</time>
      </trkpt>
      <trkpt lat="47.73312" lon="7.04253">
        <ele>378</ele>
        <time>2015-06-07T09:05:51Z</time>
      </trkpt>
      <trkpt lat="47.73308" lon="7.04256">
        <ele>378</ele>
        <time>2015-06-07T09:05:54Z</time>
      </trkpt>
      <trkpt lat="47.73302" lon="7.0426">
        <ele>378</ele>
        <time>2015-06-07T09:05:58Z</time>
      </trkpt>
      <trkpt lat="47.73298" lon="7.04264">
        <ele>378</ele>
        <time>2015-06-07T09:06:04Z</time>
      </trkpt>
      <trkpt lat="47.73293" lon="7.04265">
        <ele>378</ele>
        <time>2015-06-07T09:06:09Z</time>
      </trkpt>
      <trkpt lat="47.73288" lon="7.04268">
        <ele>378</ele>
        <time>2015-06-07T09:06:13Z</time>
      </trkpt>
      <trkpt lat="47.73285" lon="7.04274">
        <ele>378</ele>
        <time>2015-06-07T09:06:16Z</time>
      </trkpt>
      <trkpt lat="47.73284" lon="7.04288">
        <ele>378</ele>
        <time>2015-06-07T09:06:26Z</time>
      </trkpt>
      <trkpt lat="47.73281" lon="7.04294">
        <ele>378.2</ele>
        <time>2015-06-07T09:06:30Z</time>
      </trkpt>
      <trkpt lat="47.7328" lon="7.04301">
        <ele>378.4</ele>
        <time>2015-06-07T09:06:35Z</time>
      </trkpt>
      <trkpt lat="47.73277" lon="7.04308">
        <ele>379</ele>
        <time>2015-06-07T09:06:42Z</time>
      </trkpt>
      <trkpt lat="47.73278" lon="7.04315">
        <ele>380.8</ele>
        <time>2015-06-07T09:06:49Z</time>
      </trkpt>
      <trkpt lat="47.73275" lon="7.0432">
        <ele>383.6</ele>
        <time>2015-06-07T09:06:56Z</time>
      </trkpt>
      <trkpt lat="47.73267" lon="7.04326">
        <ele>385</ele>
        <time>2015-06-07T09:07:06Z</time>
      </trkpt>
      <trkpt lat="47.73263" lon="7.04333">
        <ele>387.7</ele>
        <time>2015-06-07T09:07:12Z</time>
      </trkpt>
      <trkpt lat="47.73258" lon="7.04336">
        <ele>388.7</ele>
        <time>2015-06-07T09:07:17Z</time>
      </trkpt>
      <trkpt lat="47.73255" lon="7.0434">
        <ele>389</ele>
        <time>2015-06-07T09:07:21Z</time>
      </trkpt>
      <trkpt lat="47.7325" lon="7.04343">
        <ele>389</ele>
        <time>2015-06-07T09:07:24Z</time>
      </trkpt>
      <trkpt lat="47.73247" lon="7.04348">
        <ele>389</ele>
        <time>2015-06-07T09:07:28Z</time>
      </trkpt>
      <trkpt lat="47.73243" lon="7.0436">
        <ele>389</ele>
        <time>2015-06-07T09:07:38Z</time>
      </trkpt>
      <trkpt lat="47.73239" lon="7.04375">
        <ele>389.5</ele>
        <time>2015-06-07T09:07:52Z</time>
      </trkpt>
      <trkpt lat="47.73235" lon="7.0438">
        <ele>390</ele>
        <time>2015-06-07T09:07:58Z</time>
      </trkpt>
      <trkpt lat="47.73228" lon="7.04385">
        <ele>390</ele>
        <time>2015-06-07T09:08:04Z</time>
      </trkpt>
      <trkpt lat="47.73223" lon="7.04386">
        <ele>390</ele>
        <time>2015-06-07T09:08:11Z</time>
      </trkpt>
      <trkpt lat="47.73218" lon="7.04393">
        <ele>391.7</ele>
        <time>2015-06-07T09:08:22Z</time>
      </trkpt>
      <trkpt lat="47.73212" lon="7.04396">
        <ele>394.4</ele>
        <time>2015-06-07T09:08:26Z</time>
      </trkpt>
      <trkpt lat="47.73204" lon="7.04403">
        <ele>397.8</ele>
        <time>2015-06-07T09:08:33Z</time>
      </trkpt>
      <trkpt lat="47.732" lon="7.04409">
        <ele>398</ele>
        <time>2015-06-07T09:08:36Z</time>
      </trkpt>
      <trkpt lat="47.73196" lon="7.04416">
        <ele>398</ele>
        <time>2015-06-07T09:08:39Z</time>
      </trkpt>
      <trkpt lat="47.73186" lon="7.0443">
        <ele>399.9</ele>
        <time>2015-06-07T09:08:50Z</time>
      </trkpt>
      <trkpt lat="47.73178" lon="7.0444">
        <ele>401</ele>
        <time>2015-06-07T09:09:00Z</time>
      </trkpt>
      <trkpt lat="47.73175" lon="7.04446">
        <ele>401.9</ele>
        <time>2015-06-07T09:09:06Z</time>
      </trkpt>
      <trkpt lat="47.73171" lon="7.04449">
        <ele>402</ele>
        <time>2015-06-07T09:09:15Z</time>
      </trkpt>
      <trkpt lat="47.73166" lon="7.04455">
        <ele>403</ele>
        <time>2015-06-07T09:09:28Z</time>
      </trkpt>
      <trkpt lat="47.73162" lon="7.04469">
        <ele>403.5</ele>
        <time>2015-06-07T09:09:33Z</time>
      </trkpt>
      <trkpt lat="47.73161" lon="7.04477">
        <ele>404.7</ele>
        <time>2015-06-07T09:09:39Z</time>
      </trkpt>
      <trkpt lat="47.73156" lon="7.04481">
        <ele>406</ele>
        <time>2015-06-07T09:09:46Z</time>
      </trkpt>
      <trkpt lat="47.73152" lon="7.04485">
        <ele>406</ele>
        <time>2015-06-07T09:09:50Z</time>
      </trkpt>
      <trkpt lat="47.73148" lon="7.04497">
        <ele>406</ele>
        <time>2015-06-07T09:09:58Z</time>
      </trkpt>
      <trkpt lat="47.73149" lon="7.04505">
        <ele>406.9</ele>
        <time>2015-06-07T09:10:02Z</time>
      </trkpt>
      <trkpt lat="47.73151" lon="7.04512">
        <ele>407</ele>
        <time>2015-06-07T09:10:06Z</time>
      </trkpt>
      <trkpt lat="47.73148" lon="7.04518">
        <ele>407</ele>
        <time>2015-06-07T09:10:11Z</time>
      </trkpt>
      <trkpt lat="47.73146" lon="7.04524">
        <ele>407</ele>
        <time>2015-06-07T09:10:15Z</time>
      </trkpt>
      <trkpt lat="47.73143" lon="7.04537">
        <ele>407</ele>
        <time>2015-06-07T09:10:23Z</time>
      </trkpt>
      <trkpt lat="47.73142" lon="7.04557">
        <ele>407</ele>
        <time>2015-06-07T09:10:34Z</time>
      </trkpt>
      <trkpt lat="47.73139" lon="7.04563">
        <ele>407.9</ele>
        <time>2015-06-07T09:10:38Z</time>
      </trkpt>
      <trkpt lat="47.73137" lon="7.04571">
        <ele>407.5</ele>
        <time>2015-06-07T09:10:42Z</time>
      </trkpt>
      <trkpt lat="47.73134" lon="7.0458">
        <ele>408</ele>
        <time>2015-06-07T09:10:47Z</time>
      </trkpt>
      <trkpt lat="47.73131" lon="7.04593">
        <ele>408</ele>
        <time>2015-06-07T09:10:59Z</time>
      </trkpt>
      <trkpt lat="47.73129" lon="7.04607">
        <ele>408</ele>
        <time>2015-06-07T09:11:10Z</time>
      </trkpt>
      <trkpt lat="47.73127" lon="7.04622">
        <ele>408.9</ele>
        <time>2015-06-07T09:11:16Z</time>
      </trkpt>
      <trkpt lat="47.73124" lon="7.04627">
        <ele>409</ele>
        <time>2015-06-07T09:11:20Z</time>
      </trkpt>
      <trkpt lat="47.73121" lon="7.04633">
        <ele>409</ele>
        <time>2015-06-07T09:11:26Z</time>
      </trkpt>
      <trkpt lat="47.73118" lon="7.04639">
        <ele>410.7</ele>
        <time>2015-06-07T09:11:33Z</time>
      </trkpt>
      <trkpt lat="47.73114" lon="7.04644">
        <ele>411.7</ele>
        <time>2015-06-07T09:11:37Z</time>
      </trkpt>
      <trkpt lat="47.73112" lon="7.0465">
        <ele>412</ele>
        <time>2015-06-07T09:11:40Z</time>
      </trkpt>
      <trkpt lat="47.73104" lon="7.0466">
        <ele>412</ele>
        <time>2015-06-07T09:11:47Z</time>
      </trkpt>
      <trkpt lat="47.73099" lon="7.04668">
        <ele>413.7</ele>
        <time>2015-06-07T09:11:56Z</time>
      </trkpt>
      <trkpt lat="47.73101" lon="7.04682">
        <ele>414</ele>
        <time>2015-06-07T09:12:05Z</time>
      </trkpt>
      <trkpt lat="47.73104" lon="7.04687">
        <ele>414</ele>
        <time>2015-06-07T09:12:09Z</time>
      </trkpt>
      <trkpt lat="47.73108" lon="7.04691">
        <ele>414</ele>
        <time>2015-06-07T09:12:12Z</time>
      </trkpt>
      <trkpt lat="47.73109" lon="7.04699">
        <ele>414</ele>
        <time>2015-06-07T09:12:16Z</time>
      </trkpt>
      <trkpt lat="47.73106" lon="7.04719">
        <ele>413</ele>
        <time>2015-06-07T09:12:28Z</time>
      </trkpt>
      <trkpt lat="47.73106" lon="7.04727">
        <ele>412</ele>
        <time>2015-06-07T09:12:32Z</time>
      </trkpt>
      <trkpt lat="47.73101" lon="7.04741">
        <ele>411.1</ele>
        <time>2015-06-07T09:12:40Z</time>
      </trkpt>
      <trkpt lat="47.73101" lon="7.04749">
        <ele>409</ele>
        <time>2015-06-07T09:12:43Z</time>
      </trkpt>
      <trkpt lat="47.73103" lon="7.04756">
        <ele>409</ele>
        <time>2015-06-07T09:12:46Z</time>
      </trkpt>
      <trkpt lat="47.73105" lon="7.04763">
        <ele>408.1</ele>
        <time>2015-06-07T09:12:49Z</time>
      </trkpt>
      <trkpt lat="47.73103" lon="7.0477">
        <ele>408.1</ele>
        <time>2015-06-07T09:12:51Z</time>
      </trkpt>
      <trkpt lat="47.731" lon="7.04778">
        <ele>407</ele>
        <time>2015-06-07T09:12:55Z</time>
      </trkpt>
      <trkpt lat="47.73105" lon="7.04782">
        <ele>407</ele>
        <time>2015-06-07T09:13:01Z</time>
      </trkpt>
      <trkpt lat="47.73105" lon="7.04793">
        <ele>407</ele>
        <time>2015-06-07T09:13:08Z</time>
      </trkpt>
      <trkpt lat="47.73102" lon="7.048">
        <ele>407</ele>
        <time>2015-06-07T09:13:11Z</time>
      </trkpt>
      <trkpt lat="47.73099" lon="7.04806">
        <ele>407</ele>
        <time>2015-06-07T09:13:14Z</time>
      </trkpt>
      <trkpt lat="47.73098" lon="7.04813">
        <ele>407</ele>
        <time>2015-06-07T09:13:17Z</time>
      </trkpt>
      <trkpt lat="47.73099" lon="7.0482">
        <ele>407</ele>
        <time>2015-06-07T09:13:21Z</time>
      </trkpt>
      <trkpt lat="47.73106" lon="7.04829">
        <ele>406.5</ele>
        <time>2015-06-07T09:13:27Z</time>
      </trkpt>
      <trkpt lat="47.73104" lon="7.04837">
        <ele>406</ele>
        <time>2015-06-07T09:13:40Z</time>
      </trkpt>
      <trkpt lat="47.73105" lon="7.04845">
        <ele>406</ele>
        <time>2015-06-07T09:13:45Z</time>
      </trkpt>
      <trkpt lat="47.73103" lon="7.04851">
        <ele>406</ele>
        <time>2015-06-07T09:13:49Z</time>
      </trkpt>
      <trkpt lat="47.731" lon="7.04857">
        <ele>406.8</ele>
        <time>2015-06-07T09:13:53Z</time>
      </trkpt>
      <trkpt lat="47.73099" lon="7.04866">
        <ele>407</ele>
        <time>2015-06-07T09:13:57Z</time>
      </trkpt>
      <trkpt lat="47.73099" lon="7.04874">
        <ele>407</ele>
        <time>2015-06-07T09:14:01Z</time>
      </trkpt>
      <trkpt lat="47.73095" lon="7.04886">
        <ele>407</ele>
        <time>2015-06-07T09:14:10Z</time>
      </trkpt>
      <trkpt lat="47.73095" lon="7.04906">
        <ele>406</ele>
        <time>2015-06-07T09:14:24Z</time>
      </trkpt>
      <trkpt lat="47.7309" lon="7.04925">
        <ele>406</ele>
        <time>2015-06-07T09:14:38Z</time>
      </trkpt>
      <trkpt lat="47.73089" lon="7.04932">
        <ele>406</ele>
        <time>2015-06-07T09:14:43Z</time>
      </trkpt>
      <trkpt lat="47.73086" lon="7.04942">
        <ele>406</ele>
        <time>2015-06-07T09:14:53Z</time>
      </trkpt>
      <trkpt lat="47.73085" lon="7.0495">
        <ele>405.2</ele>
        <time>2015-06-07T09:14:57Z</time>
      </trkpt>
      <trkpt lat="47.73086" lon="7.04958">
        <ele>405</ele>
        <time>2015-06-07T09:15:01Z</time>
      </trkpt>
      <trkpt lat="47.73085" lon="7.04964">
        <ele>405</ele>
        <time>2015-06-07T09:15:05Z</time>
      </trkpt>
      <trkpt lat="47.73085" lon="7.04979">
        <ele>404</ele>
        <time>2015-06-07T09:15:13Z</time>
      </trkpt>
      <trkpt lat="47.73084" lon="7.04987">
        <ele>404</ele>
        <time>2015-06-07T09:15:17Z</time>
      </trkpt>
      <trkpt lat="47.7308" lon="7.05">
        <ele>402.1</ele>
        <time>2015-06-07T09:15:25Z</time>
      </trkpt>
      <trkpt lat="47.73081" lon="7.05007">
        <ele>401.3</ele>
        <time>2015-06-07T09:15:28Z</time>
      </trkpt>
      <trkpt lat="47.73086" lon="7.05012">
        <ele>401.3</ele>
        <time>2015-06-07T09:15:31Z</time>
      </trkpt>
      <trkpt lat="47.73091" lon="7.05017">
        <ele>400.5</ele>
        <time>2015-06-07T09:15:34Z</time>
      </trkpt>
      <trkpt lat="47.73094" lon="7.05023">
        <ele>399.1</ele>
        <time>2015-06-07T09:15:37Z</time>
      </trkpt>
      <trkpt lat="47.73099" lon="7.05035">
        <ele>396.3</ele>
        <time>2015-06-07T09:15:43Z</time>
      </trkpt>
      <trkpt lat="47.73102" lon="7.0504">
        <ele>390</ele>
        <time>2015-06-07T09:16:09Z</time>
      </trkpt>
      <trkpt lat="47.731" lon="7.05047">
        <ele>389.5</ele>
        <time>2015-06-07T09:16:16Z</time>
      </trkpt>
      <trkpt lat="47.73097" lon="7.05062">
        <ele>389</ele>
        <time>2015-06-07T09:16:27Z</time>
      </trkpt>
      <trkpt lat="47.73095" lon="7.0507">
        <ele>389</ele>
        <time>2015-06-07T09:16:33Z</time>
      </trkpt>
      <trkpt lat="47.73094" lon="7.05077">
        <ele>388</ele>
        <time>2015-06-07T09:16:37Z</time>
      </trkpt>
      <trkpt lat="47.73095" lon="7.05085">
        <ele>387.1</ele>
        <time>2015-06-07T09:16:42Z</time>
      </trkpt>
      <trkpt lat="47.73099" lon="7.05098">
        <ele>385.3</ele>
        <time>2015-06-07T09:16:48Z</time>
      </trkpt>
      <trkpt lat="47.73104" lon="7.05108">
        <ele>385</ele>
        <time>2015-06-07T09:16:55Z</time>
      </trkpt>
      <trkpt lat="47.7311" lon="7.05116">
        <ele>385</ele>
        <time>2015-06-07T09:17:01Z</time>
      </trkpt>
      <trkpt lat="47.73113" lon="7.05122">
        <ele>385</ele>
        <time>2015-06-07T09:17:05Z</time>
      </trkpt>
      <trkpt lat="47.73117" lon="7.05127">
        <ele>385</ele>
        <time>2015-06-07T09:17:09Z</time>
      </trkpt>
      <trkpt lat="47.73123" lon="7.05137">
        <ele>385</ele>
        <time>2015-06-07T09:17:17Z</time>
      </trkpt>
      <trkpt lat="47.73126" lon="7.05143">
        <ele>385</ele>
        <time>2015-06-07T09:17:22Z</time>
      </trkpt>
      <trkpt lat="47.73128" lon="7.05149">
        <ele>385</ele>
        <time>2015-06-07T09:17:26Z</time>
      </trkpt>
      <trkpt lat="47.73134" lon="7.05161">
        <ele>386</ele>
        <time>2015-06-07T09:17:36Z</time>
      </trkpt>
      <trkpt lat="47.73139" lon="7.05165">
        <ele>386</ele>
        <time>2015-06-07T09:17:41Z</time>
      </trkpt>
      <trkpt lat="47.73141" lon="7.05171">
        <ele>386</ele>
        <time>2015-06-07T09:17:46Z</time>
      </trkpt>
      <trkpt lat="47.73141" lon="7.05181">
        <ele>386</ele>
        <time>2015-06-07T09:17:51Z</time>
      </trkpt>
      <trkpt lat="47.73149" lon="7.05187">
        <ele>386</ele>
        <time>2015-06-07T09:18:03Z</time>
      </trkpt>
      <trkpt lat="47.73152" lon="7.05194">
        <ele>386</ele>
        <time>2015-06-07T09:18:07Z</time>
      </trkpt>
      <trkpt lat="47.73153" lon="7.05201">
        <ele>386</ele>
        <time>2015-06-07T09:18:13Z</time>
      </trkpt>
      <trkpt lat="47.73156" lon="7.05208">
        <ele>386</ele>
        <time>2015-06-07T09:18:23Z</time>
      </trkpt>
      <trkpt lat="47.73159" lon="7.05217">
        <ele>386</ele>
        <time>2015-06-07T09:18:26Z</time>
      </trkpt>
      <trkpt lat="47.7317" lon="7.05225">
        <ele>386</ele>
        <time>2015-06-07T09:18:44Z</time>
      </trkpt>
      <trkpt lat="47.73172" lon="7.05231">
        <ele>385</ele>
        <time>2015-06-07T09:19:07Z</time>
      </trkpt>
      <trkpt lat="47.73171" lon="7.05238">
        <ele>383</ele>
        <time>2015-06-07T09:19:22Z</time>
      </trkpt>
      <trkpt lat="47.73166" lon="7.05241">
        <ele>383</ele>
        <time>2015-06-07T09:19:26Z</time>
      </trkpt>
      <trkpt lat="47.73164" lon="7.05248">
        <ele>382</ele>
        <time>2015-06-07T09:19:34Z</time>
      </trkpt>
      <trkpt lat="47.73163" lon="7.05254">
        <ele>382</ele>
        <time>2015-06-07T09:19:43Z</time>
      </trkpt>
      <trkpt lat="47.73159" lon="7.0526">
        <ele>382</ele>
        <time>2015-06-07T09:19:51Z</time>
      </trkpt>
      <trkpt lat="47.73155" lon="7.05263">
        <ele>381</ele>
        <time>2015-06-07T09:19:55Z</time>
      </trkpt>
      <trkpt lat="47.73151" lon="7.05259">
        <ele>378.3</ele>
        <time>2015-06-07T09:20:24Z</time>
      </trkpt>
      <trkpt lat="47.73155" lon="7.0525">
        <ele>378.9</ele>
        <time>2015-06-07T09:21:01Z</time>
      </trkpt>
      <trkpt lat="47.73167" lon="7.05245">
        <ele>382.6</ele>
        <time>2015-06-07T09:21:13Z</time>
      </trkpt>
      <trkpt lat="47.73165" lon="7.05236">
        <ele>384</ele>
        <time>2015-06-07T09:21:23Z</time>
      </trkpt>
      <trkpt lat="47.73165" lon="7.0522">
        <ele>384</ele>
        <time>2015-06-07T09:21:33Z</time>
      </trkpt>
      <trkpt lat="47.73164" lon="7.05212">
        <ele>385.8</ele>
        <time>2015-06-07T09:22:02Z</time>
      </trkpt>
      <trkpt lat="47.7316" lon="7.05208">
        <ele>385.2</ele>
        <time>2015-06-07T09:22:08Z</time>
      </trkpt>
      <trkpt lat="47.73158" lon="7.052">
        <ele>385</ele>
        <time>2015-06-07T09:22:42Z</time>
      </trkpt>
      <trkpt lat="47.73151" lon="7.05192">
        <ele>386</ele>
        <time>2015-06-07T09:23:17Z</time>
      </trkpt>
      <trkpt lat="47.73147" lon="7.05179">
        <ele>387</ele>
        <time>2015-06-07T09:23:28Z</time>
      </trkpt>
      <trkpt lat="47.73146" lon="7.05172">
        <ele>387.7</ele>
        <time>2015-06-07T09:23:38Z</time>
      </trkpt>
      <trkpt lat="47.73142" lon="7.0517">
        <ele>388</ele>
        <time>2015-06-07T09:23:50Z</time>
      </trkpt>
      <trkpt lat="47.73139" lon="7.05176">
        <ele>388</ele>
        <time>2015-06-07T09:23:54Z</time>
      </trkpt>
      <trkpt lat="47.73137" lon="7.05186">
        <ele>388</ele>
        <time>2015-06-07T09:23:57Z</time>
      </trkpt>
      <trkpt lat="47.73136" lon="7.05193">
        <ele>388</ele>
        <time>2015-06-07T09:24:01Z</time>
      </trkpt>
      <trkpt lat="47.73136" lon="7.05201">
        <ele>388</ele>
        <time>2015-06-07T09:24:05Z</time>
      </trkpt>
      <trkpt lat="47.73136" lon="7.05208">
        <ele>388</ele>
        <time>2015-06-07T09:24:15Z</time>
      </trkpt>
      <trkpt lat="47.73132" lon="7.05213">
        <ele>388</ele>
        <time>2015-06-07T09:24:25Z</time>
      </trkpt>
      <trkpt lat="47.73123" lon="7.05219">
        <ele>387</ele>
        <time>2015-06-07T09:24:32Z</time>
      </trkpt>
      <trkpt lat="47.73123" lon="7.05219">
        <ele>380.7</ele>
        <time>2015-06-07T09:24:33Z</time>
      </trkpt>
      <trkpt lat="47.73123" lon="7.05219">
        <ele>380.7</ele>
        <time>2015-06-07T09:24:36Z</time>
      </trkpt>
    </trkseg>
  </trk>
</gpx>